<?xml version="1.0" encoding="utf-8"?>
<gpx xmlns:xsi="http://www.w3.org/2001/XMLSchema-instance" xmlns:xsd="http://www.w3.org/2001/XMLSchema" version="1.1" creator="Shapelink.com" xmlns="http://www.topografix.com/GPX/1/1" xmlns:gpxtpx="http://www.garmin.com/xmlschemas/TrackPointExtension/v1">
  <metadata>
    <name>Løping 1.72 km, 2014-07-06</name>
    <desc></desc>
    <author><name>Mikael Blom</name></author> 
    <time>2014-07-06T08:45:57Z</time>
  </metadata>
  <trk>
    <name>Løping 1.72 km, 2014-07-06</name>
    <trkseg>
      <trkpt lat="59.9522829" lon="17.7229106">
        <ele>29.9381</ele>
        <time>2014-07-06T08:45:57Z</time>
      </trkpt>
      <trkpt lat="59.952289" lon="17.7229536">
        <ele>30.4188</ele>
        <time>2014-07-06T08:45:58Z</time>
      </trkpt>
      <trkpt lat="59.9522905" lon="17.7230012">
        <ele>30.4188</ele>
        <time>2014-07-06T08:45:59Z</time>
      </trkpt>
      <trkpt lat="59.952286" lon="17.7230563">
        <ele>30.4188</ele>
        <time>2014-07-06T08:46:00Z</time>
      </trkpt>
      <trkpt lat="59.9522854" lon="17.7231146">
        <ele>30.4188</ele>
        <time>2014-07-06T08:46:01Z</time>
      </trkpt>
      <trkpt lat="59.9522941" lon="17.7231658">
        <ele>29.9381</ele>
        <time>2014-07-06T08:46:02Z</time>
      </trkpt>
      <trkpt lat="59.9523052" lon="17.7232166">
        <ele>29.4575</ele>
        <time>2014-07-06T08:46:03Z</time>
      </trkpt>
      <trkpt lat="59.9523148" lon="17.723268">
        <ele>29.4575</ele>
        <time>2014-07-06T08:46:04Z</time>
      </trkpt>
      <trkpt lat="59.9523254" lon="17.7233218">
        <ele>28.9769</ele>
        <time>2014-07-06T08:46:05Z</time>
      </trkpt>
      <trkpt lat="59.952339" lon="17.7233676">
        <ele>28.4962</ele>
        <time>2014-07-06T08:46:06Z</time>
      </trkpt>
      <trkpt lat="59.9523538" lon="17.7234089">
        <ele>28.4962</ele>
        <time>2014-07-06T08:46:07Z</time>
      </trkpt>
      <trkpt lat="59.9523596" lon="17.7234525">
        <ele>28.4962</ele>
        <time>2014-07-06T08:46:08Z</time>
      </trkpt>
      <trkpt lat="59.952378" lon="17.7234987">
        <ele>28.0155</ele>
        <time>2014-07-06T08:46:09Z</time>
      </trkpt>
      <trkpt lat="59.9523913" lon="17.7235502">
        <ele>27.5349</ele>
        <time>2014-07-06T08:46:10Z</time>
      </trkpt>
      <trkpt lat="59.9524071" lon="17.7235937">
        <ele>26.5736</ele>
        <time>2014-07-06T08:46:11Z</time>
      </trkpt>
      <trkpt lat="59.9524215" lon="17.7236409">
        <ele>26.5736</ele>
        <time>2014-07-06T08:46:12Z</time>
      </trkpt>
      <trkpt lat="59.9524464" lon="17.7236882">
        <ele>26.5736</ele>
        <time>2014-07-06T08:46:13Z</time>
      </trkpt>
      <trkpt lat="59.9524568" lon="17.7237301">
        <ele>26.5736</ele>
        <time>2014-07-06T08:46:14Z</time>
      </trkpt>
      <trkpt lat="59.9524685" lon="17.7237853">
        <ele>26.5736</ele>
        <time>2014-07-06T08:46:15Z</time>
      </trkpt>
      <trkpt lat="59.9524724" lon="17.7238421">
        <ele>26.5736</ele>
        <time>2014-07-06T08:46:16Z</time>
      </trkpt>
      <trkpt lat="59.952471" lon="17.7238999">
        <ele>26.0929</ele>
        <time>2014-07-06T08:46:17Z</time>
      </trkpt>
      <trkpt lat="59.9524667" lon="17.7239588">
        <ele>26.0929</ele>
        <time>2014-07-06T08:46:18Z</time>
      </trkpt>
      <trkpt lat="59.9524578" lon="17.7240153">
        <ele>26.0929</ele>
        <time>2014-07-06T08:46:19Z</time>
      </trkpt>
      <trkpt lat="59.9524488" lon="17.7240667">
        <ele>25.6123</ele>
        <time>2014-07-06T08:46:20Z</time>
      </trkpt>
      <trkpt lat="59.9524414" lon="17.7241216">
        <ele>25.1317</ele>
        <time>2014-07-06T08:46:21Z</time>
      </trkpt>
      <trkpt lat="59.9524346" lon="17.7241761">
        <ele>25.6123</ele>
        <time>2014-07-06T08:46:22Z</time>
      </trkpt>
      <trkpt lat="59.9524264" lon="17.7242337">
        <ele>26.0929</ele>
        <time>2014-07-06T08:46:23Z</time>
      </trkpt>
      <trkpt lat="59.9524148" lon="17.7242829">
        <ele>26.0929</ele>
        <time>2014-07-06T08:46:24Z</time>
      </trkpt>
      <trkpt lat="59.9524011" lon="17.7243226">
        <ele>25.6123</ele>
        <time>2014-07-06T08:46:25Z</time>
      </trkpt>
      <trkpt lat="59.9523912" lon="17.7243631">
        <ele>25.6123</ele>
        <time>2014-07-06T08:46:26Z</time>
      </trkpt>
      <trkpt lat="59.9523818" lon="17.7244035">
        <ele>25.6123</ele>
        <time>2014-07-06T08:46:27Z</time>
      </trkpt>
      <trkpt lat="59.952371" lon="17.7244442">
        <ele>26.0929</ele>
        <time>2014-07-06T08:46:28Z</time>
      </trkpt>
      <trkpt lat="59.9523633" lon="17.7244807">
        <ele>27.0543</ele>
        <time>2014-07-06T08:46:29Z</time>
      </trkpt>
      <trkpt lat="59.9523557" lon="17.7245143">
        <ele>27.5349</ele>
        <time>2014-07-06T08:46:30Z</time>
      </trkpt>
      <trkpt lat="59.9523449" lon="17.7245527">
        <ele>28.0155</ele>
        <time>2014-07-06T08:46:31Z</time>
      </trkpt>
      <trkpt lat="59.952329" lon="17.724594">
        <ele>29.4575</ele>
        <time>2014-07-06T08:46:32Z</time>
      </trkpt>
      <trkpt lat="59.9523503" lon="17.7246442">
        <ele>35.7061</ele>
        <time>2014-07-06T08:46:33Z</time>
      </trkpt>
      <trkpt lat="59.9523537" lon="17.7246903">
        <ele>39.0707</ele>
        <time>2014-07-06T08:46:34Z</time>
      </trkpt>
      <trkpt lat="59.9523483" lon="17.7247303">
        <ele>41.474</ele>
        <time>2014-07-06T08:46:35Z</time>
      </trkpt>
      <trkpt lat="59.9523394" lon="17.7247732">
        <ele>43.3966</ele>
        <time>2014-07-06T08:46:36Z</time>
      </trkpt>
      <trkpt lat="59.9523231" lon="17.7248162">
        <ele>44.358</ele>
        <time>2014-07-06T08:46:37Z</time>
      </trkpt>
      <trkpt lat="59.9523078" lon="17.7248613">
        <ele>44.358</ele>
        <time>2014-07-06T08:46:38Z</time>
      </trkpt>
      <trkpt lat="59.9522912" lon="17.7249029">
        <ele>44.8386</ele>
        <time>2014-07-06T08:46:39Z</time>
      </trkpt>
      <trkpt lat="59.9522695" lon="17.7249459">
        <ele>45.3192</ele>
        <time>2014-07-06T08:46:40Z</time>
      </trkpt>
      <trkpt lat="59.9522485" lon="17.7249966">
        <ele>45.7999</ele>
        <time>2014-07-06T08:46:41Z</time>
      </trkpt>
      <trkpt lat="59.9522307" lon="17.7250407">
        <ele>46.7612</ele>
        <time>2014-07-06T08:46:42Z</time>
      </trkpt>
      <trkpt lat="59.9522154" lon="17.725079">
        <ele>47.2418</ele>
        <time>2014-07-06T08:46:43Z</time>
      </trkpt>
      <trkpt lat="59.952197" lon="17.725119">
        <ele>47.7225</ele>
        <time>2014-07-06T08:46:44Z</time>
      </trkpt>
      <trkpt lat="59.9521809" lon="17.7251583">
        <ele>48.2034</ele>
        <time>2014-07-06T08:46:45Z</time>
      </trkpt>
      <trkpt lat="59.9521642" lon="17.7251956">
        <ele>48.2034</ele>
        <time>2014-07-06T08:46:46Z</time>
      </trkpt>
      <trkpt lat="59.9521477" lon="17.7252313">
        <ele>48.2034</ele>
        <time>2014-07-06T08:46:47Z</time>
      </trkpt>
      <trkpt lat="59.9521306" lon="17.7252679">
        <ele>48.684</ele>
        <time>2014-07-06T08:46:48Z</time>
      </trkpt>
      <trkpt lat="59.9521116" lon="17.7252996">
        <ele>49.1646</ele>
        <time>2014-07-06T08:46:49Z</time>
      </trkpt>
      <trkpt lat="59.9520918" lon="17.7253405">
        <ele>49.1646</ele>
        <time>2014-07-06T08:46:50Z</time>
      </trkpt>
      <trkpt lat="59.9520743" lon="17.7253754">
        <ele>49.1646</ele>
        <time>2014-07-06T08:46:51Z</time>
      </trkpt>
      <trkpt lat="59.9520555" lon="17.7254084">
        <ele>49.1646</ele>
        <time>2014-07-06T08:46:52Z</time>
      </trkpt>
      <trkpt lat="59.9520415" lon="17.7254463">
        <ele>49.6453</ele>
        <time>2014-07-06T08:46:53Z</time>
      </trkpt>
      <trkpt lat="59.9520249" lon="17.7254911">
        <ele>50.126</ele>
        <time>2014-07-06T08:46:54Z</time>
      </trkpt>
      <trkpt lat="59.9520088" lon="17.7255295">
        <ele>50.126</ele>
        <time>2014-07-06T08:46:55Z</time>
      </trkpt>
      <trkpt lat="59.9519949" lon="17.7255758">
        <ele>50.126</ele>
        <time>2014-07-06T08:46:56Z</time>
      </trkpt>
      <trkpt lat="59.951983" lon="17.7256162">
        <ele>50.6066</ele>
        <time>2014-07-06T08:46:57Z</time>
      </trkpt>
      <trkpt lat="59.9519672" lon="17.7256524">
        <ele>51.0872</ele>
        <time>2014-07-06T08:46:58Z</time>
      </trkpt>
      <trkpt lat="59.9519483" lon="17.7256928">
        <ele>51.5679</ele>
        <time>2014-07-06T08:46:59Z</time>
      </trkpt>
      <trkpt lat="59.9519327" lon="17.7257308">
        <ele>52.0486</ele>
        <time>2014-07-06T08:47:00Z</time>
      </trkpt>
      <trkpt lat="59.9519163" lon="17.7257711">
        <ele>52.5292</ele>
        <time>2014-07-06T08:47:01Z</time>
      </trkpt>
      <trkpt lat="59.9518992" lon="17.7258125">
        <ele>53.0098</ele>
        <time>2014-07-06T08:47:02Z</time>
      </trkpt>
      <trkpt lat="59.9518839" lon="17.7258478">
        <ele>53.0098</ele>
        <time>2014-07-06T08:47:03Z</time>
      </trkpt>
      <trkpt lat="59.9518669" lon="17.7258778">
        <ele>53.4905</ele>
        <time>2014-07-06T08:47:04Z</time>
      </trkpt>
      <trkpt lat="59.9518493" lon="17.7258972">
        <ele>53.9712</ele>
        <time>2014-07-06T08:47:05Z</time>
      </trkpt>
      <trkpt lat="59.9518241" lon="17.7259223">
        <ele>53.9712</ele>
        <time>2014-07-06T08:47:06Z</time>
      </trkpt>
      <trkpt lat="59.9518009" lon="17.7259487">
        <ele>54.4518</ele>
        <time>2014-07-06T08:47:07Z</time>
      </trkpt>
      <trkpt lat="59.9517789" lon="17.7259739">
        <ele>54.4518</ele>
        <time>2014-07-06T08:47:08Z</time>
      </trkpt>
      <trkpt lat="59.9517602" lon="17.7260046">
        <ele>54.9324</ele>
        <time>2014-07-06T08:47:09Z</time>
      </trkpt>
      <trkpt lat="59.9517421" lon="17.7260324">
        <ele>54.9324</ele>
        <time>2014-07-06T08:47:10Z</time>
      </trkpt>
      <trkpt lat="59.9517277" lon="17.726057">
        <ele>54.9324</ele>
        <time>2014-07-06T08:47:11Z</time>
      </trkpt>
      <trkpt lat="59.9517109" lon="17.726085">
        <ele>54.9324</ele>
        <time>2014-07-06T08:47:12Z</time>
      </trkpt>
      <trkpt lat="59.9516924" lon="17.7261191">
        <ele>54.9324</ele>
        <time>2014-07-06T08:47:13Z</time>
      </trkpt>
      <trkpt lat="59.9516722" lon="17.7261601">
        <ele>54.9324</ele>
        <time>2014-07-06T08:47:14Z</time>
      </trkpt>
      <trkpt lat="59.9516536" lon="17.7261969">
        <ele>54.9324</ele>
        <time>2014-07-06T08:47:15Z</time>
      </trkpt>
      <trkpt lat="59.9516383" lon="17.7262378">
        <ele>54.9324</ele>
        <time>2014-07-06T08:47:16Z</time>
      </trkpt>
      <trkpt lat="59.9516219" lon="17.726272">
        <ele>53.9712</ele>
        <time>2014-07-06T08:47:17Z</time>
      </trkpt>
      <trkpt lat="59.9516012" lon="17.7263039">
        <ele>53.0098</ele>
        <time>2014-07-06T08:47:18Z</time>
      </trkpt>
      <trkpt lat="59.95158" lon="17.7263455">
        <ele>52.0486</ele>
        <time>2014-07-06T08:47:19Z</time>
      </trkpt>
      <trkpt lat="59.9515686" lon="17.7263866">
        <ele>52.0486</ele>
        <time>2014-07-06T08:47:20Z</time>
      </trkpt>
      <trkpt lat="59.9515577" lon="17.7264336">
        <ele>52.5292</ele>
        <time>2014-07-06T08:47:21Z</time>
      </trkpt>
      <trkpt lat="59.9515437" lon="17.726479">
        <ele>52.5292</ele>
        <time>2014-07-06T08:47:22Z</time>
      </trkpt>
      <trkpt lat="59.951529" lon="17.7265185">
        <ele>53.0098</ele>
        <time>2014-07-06T08:47:23Z</time>
      </trkpt>
      <trkpt lat="59.9515119" lon="17.726557">
        <ele>52.5292</ele>
        <time>2014-07-06T08:47:24Z</time>
      </trkpt>
      <trkpt lat="59.9514969" lon="17.7265926">
        <ele>52.5292</ele>
        <time>2014-07-06T08:47:25Z</time>
      </trkpt>
      <trkpt lat="59.9514826" lon="17.7266298">
        <ele>52.5292</ele>
        <time>2014-07-06T08:47:26Z</time>
      </trkpt>
      <trkpt lat="59.9514687" lon="17.7266738">
        <ele>51.5679</ele>
        <time>2014-07-06T08:47:27Z</time>
      </trkpt>
      <trkpt lat="59.9514624" lon="17.726717">
        <ele>51.5679</ele>
        <time>2014-07-06T08:47:28Z</time>
      </trkpt>
      <trkpt lat="59.9514615" lon="17.7267584">
        <ele>51.5679</ele>
        <time>2014-07-06T08:47:29Z</time>
      </trkpt>
      <trkpt lat="59.9514614" lon="17.726805">
        <ele>51.0872</ele>
        <time>2014-07-06T08:47:30Z</time>
      </trkpt>
      <trkpt lat="59.9514589" lon="17.7268522">
        <ele>50.6066</ele>
        <time>2014-07-06T08:47:31Z</time>
      </trkpt>
      <trkpt lat="59.951458" lon="17.7268989">
        <ele>50.126</ele>
        <time>2014-07-06T08:47:32Z</time>
      </trkpt>
      <trkpt lat="59.9514588" lon="17.7269424">
        <ele>49.6453</ele>
        <time>2014-07-06T08:47:33Z</time>
      </trkpt>
      <trkpt lat="59.9514588" lon="17.7269858">
        <ele>48.684</ele>
        <time>2014-07-06T08:47:34Z</time>
      </trkpt>
      <trkpt lat="59.9514639" lon="17.7270272">
        <ele>48.684</ele>
        <time>2014-07-06T08:47:35Z</time>
      </trkpt>
      <trkpt lat="59.9514624" lon="17.7270718">
        <ele>47.7225</ele>
        <time>2014-07-06T08:47:36Z</time>
      </trkpt>
      <trkpt lat="59.9514612" lon="17.7271211">
        <ele>46.7612</ele>
        <time>2014-07-06T08:47:37Z</time>
      </trkpt>
      <trkpt lat="59.951467" lon="17.7271806">
        <ele>45.7999</ele>
        <time>2014-07-06T08:47:38Z</time>
      </trkpt>
      <trkpt lat="59.95147" lon="17.7272426">
        <ele>44.8386</ele>
        <time>2014-07-06T08:47:39Z</time>
      </trkpt>
      <trkpt lat="59.951468" lon="17.7272969">
        <ele>43.8773</ele>
        <time>2014-07-06T08:47:40Z</time>
      </trkpt>
      <trkpt lat="59.951465" lon="17.7273474">
        <ele>42.4354</ele>
        <time>2014-07-06T08:47:41Z</time>
      </trkpt>
      <trkpt lat="59.9514624" lon="17.727399">
        <ele>41.474</ele>
        <time>2014-07-06T08:47:42Z</time>
      </trkpt>
      <trkpt lat="59.9514609" lon="17.7274541">
        <ele>40.9934</ele>
        <time>2014-07-06T08:47:43Z</time>
      </trkpt>
      <trkpt lat="59.9514629" lon="17.7275085">
        <ele>40.5128</ele>
        <time>2014-07-06T08:47:44Z</time>
      </trkpt>
      <trkpt lat="59.9514648" lon="17.7275587">
        <ele>40.0321</ele>
        <time>2014-07-06T08:47:45Z</time>
      </trkpt>
      <trkpt lat="59.9514707" lon="17.7276099">
        <ele>39.0707</ele>
        <time>2014-07-06T08:47:46Z</time>
      </trkpt>
      <trkpt lat="59.9514743" lon="17.7276554">
        <ele>38.5901</ele>
        <time>2014-07-06T08:47:47Z</time>
      </trkpt>
      <trkpt lat="59.9514815" lon="17.7276976">
        <ele>38.1094</ele>
        <time>2014-07-06T08:47:48Z</time>
      </trkpt>
      <trkpt lat="59.9514959" lon="17.727737">
        <ele>37.1481</ele>
        <time>2014-07-06T08:47:49Z</time>
      </trkpt>
      <trkpt lat="59.9515109" lon="17.7277647">
        <ele>36.6675</ele>
        <time>2014-07-06T08:47:50Z</time>
      </trkpt>
      <trkpt lat="59.9515256" lon="17.727788">
        <ele>35.7061</ele>
        <time>2014-07-06T08:47:51Z</time>
      </trkpt>
      <trkpt lat="59.951544" lon="17.7278032">
        <ele>35.2255</ele>
        <time>2014-07-06T08:47:52Z</time>
      </trkpt>
      <trkpt lat="59.9515629" lon="17.7278068">
        <ele>34.7449</ele>
        <time>2014-07-06T08:47:53Z</time>
      </trkpt>
      <trkpt lat="59.9515862" lon="17.7278141">
        <ele>34.7449</ele>
        <time>2014-07-06T08:47:54Z</time>
      </trkpt>
      <trkpt lat="59.9516121" lon="17.7278229">
        <ele>33.7834</ele>
        <time>2014-07-06T08:47:55Z</time>
      </trkpt>
      <trkpt lat="59.9516375" lon="17.7278268">
        <ele>33.7834</ele>
        <time>2014-07-06T08:47:56Z</time>
      </trkpt>
      <trkpt lat="59.9516619" lon="17.7278305">
        <ele>33.3029</ele>
        <time>2014-07-06T08:47:57Z</time>
      </trkpt>
      <trkpt lat="59.9516851" lon="17.7278275">
        <ele>33.3029</ele>
        <time>2014-07-06T08:47:58Z</time>
      </trkpt>
      <trkpt lat="59.9517078" lon="17.7278223">
        <ele>33.7834</ele>
        <time>2014-07-06T08:47:59Z</time>
      </trkpt>
      <trkpt lat="59.9517343" lon="17.7278167">
        <ele>33.7834</ele>
        <time>2014-07-06T08:48:00Z</time>
      </trkpt>
      <trkpt lat="59.9517601" lon="17.7278068">
        <ele>34.2642</ele>
        <time>2014-07-06T08:48:01Z</time>
      </trkpt>
      <trkpt lat="59.9517847" lon="17.727784">
        <ele>34.7449</ele>
        <time>2014-07-06T08:48:02Z</time>
      </trkpt>
      <trkpt lat="59.9518079" lon="17.7277557">
        <ele>34.7449</ele>
        <time>2014-07-06T08:48:03Z</time>
      </trkpt>
      <trkpt lat="59.9518281" lon="17.7277281">
        <ele>34.7449</ele>
        <time>2014-07-06T08:48:04Z</time>
      </trkpt>
      <trkpt lat="59.9518786" lon="17.7277147">
        <ele>39.5513</ele>
        <time>2014-07-06T08:48:05Z</time>
      </trkpt>
      <trkpt lat="59.9519131" lon="17.7276852">
        <ele>41.9547</ele>
        <time>2014-07-06T08:48:06Z</time>
      </trkpt>
      <trkpt lat="59.9519284" lon="17.7276407">
        <ele>41.9547</ele>
        <time>2014-07-06T08:48:07Z</time>
      </trkpt>
      <trkpt lat="59.9519394" lon="17.7275915">
        <ele>42.4354</ele>
        <time>2014-07-06T08:48:08Z</time>
      </trkpt>
      <trkpt lat="59.9519484" lon="17.727536">
        <ele>43.3966</ele>
        <time>2014-07-06T08:48:09Z</time>
      </trkpt>
      <trkpt lat="59.9519519" lon="17.7274774">
        <ele>43.8773</ele>
        <time>2014-07-06T08:48:10Z</time>
      </trkpt>
      <trkpt lat="59.951952" lon="17.7274199">
        <ele>45.3192</ele>
        <time>2014-07-06T08:48:11Z</time>
      </trkpt>
      <trkpt lat="59.9519584" lon="17.7273644">
        <ele>46.2806</ele>
        <time>2014-07-06T08:48:12Z</time>
      </trkpt>
      <trkpt lat="59.951965" lon="17.7272981">
        <ele>47.2418</ele>
        <time>2014-07-06T08:48:13Z</time>
      </trkpt>
      <trkpt lat="59.9519737" lon="17.7272245">
        <ele>48.2034</ele>
        <time>2014-07-06T08:48:14Z</time>
      </trkpt>
      <trkpt lat="59.9519879" lon="17.7271718">
        <ele>48.684</ele>
        <time>2014-07-06T08:48:15Z</time>
      </trkpt>
      <trkpt lat="59.9520064" lon="17.7271211">
        <ele>49.1646</ele>
        <time>2014-07-06T08:48:16Z</time>
      </trkpt>
      <trkpt lat="59.9520177" lon="17.7270675">
        <ele>49.6453</ele>
        <time>2014-07-06T08:48:17Z</time>
      </trkpt>
      <trkpt lat="59.9520301" lon="17.7270249">
        <ele>50.6066</ele>
        <time>2014-07-06T08:48:18Z</time>
      </trkpt>
      <trkpt lat="59.9520431" lon="17.726982">
        <ele>50.6066</ele>
        <time>2014-07-06T08:48:19Z</time>
      </trkpt>
      <trkpt lat="59.9520555" lon="17.7269359">
        <ele>50.6066</ele>
        <time>2014-07-06T08:48:20Z</time>
      </trkpt>
      <trkpt lat="59.9520678" lon="17.7268848">
        <ele>51.0872</ele>
        <time>2014-07-06T08:48:21Z</time>
      </trkpt>
      <trkpt lat="59.9520778" lon="17.7268331">
        <ele>51.0872</ele>
        <time>2014-07-06T08:48:22Z</time>
      </trkpt>
      <trkpt lat="59.9520907" lon="17.7267781">
        <ele>51.5679</ele>
        <time>2014-07-06T08:48:23Z</time>
      </trkpt>
      <trkpt lat="59.9521016" lon="17.7267266">
        <ele>51.5679</ele>
        <time>2014-07-06T08:48:24Z</time>
      </trkpt>
      <trkpt lat="59.9521151" lon="17.7266794">
        <ele>52.0486</ele>
        <time>2014-07-06T08:48:25Z</time>
      </trkpt>
      <trkpt lat="59.9521312" lon="17.7266304">
        <ele>52.0486</ele>
        <time>2014-07-06T08:48:26Z</time>
      </trkpt>
      <trkpt lat="59.9521465" lon="17.7265895">
        <ele>52.5292</ele>
        <time>2014-07-06T08:48:27Z</time>
      </trkpt>
      <trkpt lat="59.952162" lon="17.7265419">
        <ele>52.5292</ele>
        <time>2014-07-06T08:48:28Z</time>
      </trkpt>
      <trkpt lat="59.9521753" lon="17.7264945">
        <ele>53.0098</ele>
        <time>2014-07-06T08:48:29Z</time>
      </trkpt>
      <trkpt lat="59.9521865" lon="17.7264453">
        <ele>53.4905</ele>
        <time>2014-07-06T08:48:30Z</time>
      </trkpt>
      <trkpt lat="59.9521988" lon="17.7263942">
        <ele>53.4905</ele>
        <time>2014-07-06T08:48:31Z</time>
      </trkpt>
      <trkpt lat="59.9522145" lon="17.7263594">
        <ele>53.4905</ele>
        <time>2014-07-06T08:48:32Z</time>
      </trkpt>
      <trkpt lat="59.9522296" lon="17.7263203">
        <ele>53.9712</ele>
        <time>2014-07-06T08:48:33Z</time>
      </trkpt>
      <trkpt lat="59.9522472" lon="17.7262719">
        <ele>53.9712</ele>
        <time>2014-07-06T08:48:34Z</time>
      </trkpt>
      <trkpt lat="59.9522633" lon="17.7262298">
        <ele>53.9712</ele>
        <time>2014-07-06T08:48:35Z</time>
      </trkpt>
      <trkpt lat="59.9522796" lon="17.7261886">
        <ele>54.4518</ele>
        <time>2014-07-06T08:48:36Z</time>
      </trkpt>
      <trkpt lat="59.9522958" lon="17.7261509">
        <ele>54.4518</ele>
        <time>2014-07-06T08:48:37Z</time>
      </trkpt>
      <trkpt lat="59.9523108" lon="17.7261131">
        <ele>53.9712</ele>
        <time>2014-07-06T08:48:38Z</time>
      </trkpt>
      <trkpt lat="59.9523296" lon="17.7260777">
        <ele>53.9712</ele>
        <time>2014-07-06T08:48:39Z</time>
      </trkpt>
      <trkpt lat="59.9523477" lon="17.726044">
        <ele>53.9712</ele>
        <time>2014-07-06T08:48:40Z</time>
      </trkpt>
      <trkpt lat="59.9523627" lon="17.7260041">
        <ele>53.4905</ele>
        <time>2014-07-06T08:48:41Z</time>
      </trkpt>
      <trkpt lat="59.9523829" lon="17.725967">
        <ele>53.4905</ele>
        <time>2014-07-06T08:48:42Z</time>
      </trkpt>
      <trkpt lat="59.9524015" lon="17.7259302">
        <ele>53.4905</ele>
        <time>2014-07-06T08:48:43Z</time>
      </trkpt>
      <trkpt lat="59.9524254" lon="17.7259053">
        <ele>53.4905</ele>
        <time>2014-07-06T08:48:44Z</time>
      </trkpt>
      <trkpt lat="59.9524496" lon="17.725867">
        <ele>53.0098</ele>
        <time>2014-07-06T08:48:45Z</time>
      </trkpt>
      <trkpt lat="59.9524694" lon="17.7258187">
        <ele>53.0098</ele>
        <time>2014-07-06T08:48:46Z</time>
      </trkpt>
      <trkpt lat="59.9524899" lon="17.7257789">
        <ele>52.0486</ele>
        <time>2014-07-06T08:48:47Z</time>
      </trkpt>
      <trkpt lat="59.9525086" lon="17.725743">
        <ele>52.0486</ele>
        <time>2014-07-06T08:48:48Z</time>
      </trkpt>
      <trkpt lat="59.9525262" lon="17.7257204">
        <ele>52.0486</ele>
        <time>2014-07-06T08:48:49Z</time>
      </trkpt>
      <trkpt lat="59.952542" lon="17.7256756">
        <ele>51.5679</ele>
        <time>2014-07-06T08:48:50Z</time>
      </trkpt>
      <trkpt lat="59.9525554" lon="17.7256198">
        <ele>51.5679</ele>
        <time>2014-07-06T08:48:51Z</time>
      </trkpt>
      <trkpt lat="59.9525738" lon="17.7255808">
        <ele>51.0872</ele>
        <time>2014-07-06T08:48:52Z</time>
      </trkpt>
      <trkpt lat="59.9525976" lon="17.725553">
        <ele>51.0872</ele>
        <time>2014-07-06T08:48:53Z</time>
      </trkpt>
      <trkpt lat="59.9526159" lon="17.7255162">
        <ele>51.0872</ele>
        <time>2014-07-06T08:48:54Z</time>
      </trkpt>
      <trkpt lat="59.9526356" lon="17.7254893">
        <ele>51.0872</ele>
        <time>2014-07-06T08:48:55Z</time>
      </trkpt>
      <trkpt lat="59.9526539" lon="17.7254762">
        <ele>50.6066</ele>
        <time>2014-07-06T08:48:56Z</time>
      </trkpt>
      <trkpt lat="59.9526724" lon="17.7254565">
        <ele>50.6066</ele>
        <time>2014-07-06T08:48:57Z</time>
      </trkpt>
      <trkpt lat="59.9526921" lon="17.7254286">
        <ele>50.126</ele>
        <time>2014-07-06T08:48:58Z</time>
      </trkpt>
      <trkpt lat="59.9527061" lon="17.725386">
        <ele>50.126</ele>
        <time>2014-07-06T08:48:59Z</time>
      </trkpt>
      <trkpt lat="59.9527194" lon="17.7253391">
        <ele>49.6453</ele>
        <time>2014-07-06T08:49:00Z</time>
      </trkpt>
      <trkpt lat="59.9527337" lon="17.7252831">
        <ele>49.1646</ele>
        <time>2014-07-06T08:49:01Z</time>
      </trkpt>
      <trkpt lat="59.9527486" lon="17.7252369">
        <ele>48.684</ele>
        <time>2014-07-06T08:49:02Z</time>
      </trkpt>
      <trkpt lat="59.9527674" lon="17.7252059">
        <ele>48.684</ele>
        <time>2014-07-06T08:49:03Z</time>
      </trkpt>
      <trkpt lat="59.9527859" lon="17.7251784">
        <ele>48.2034</ele>
        <time>2014-07-06T08:49:04Z</time>
      </trkpt>
      <trkpt lat="59.9528002" lon="17.7251373">
        <ele>48.2034</ele>
        <time>2014-07-06T08:49:05Z</time>
      </trkpt>
      <trkpt lat="59.9528108" lon="17.725079">
        <ele>47.7225</ele>
        <time>2014-07-06T08:49:06Z</time>
      </trkpt>
      <trkpt lat="59.9528285" lon="17.7250391">
        <ele>48.2034</ele>
        <time>2014-07-06T08:49:07Z</time>
      </trkpt>
      <trkpt lat="59.9528527" lon="17.7250157">
        <ele>48.684</ele>
        <time>2014-07-06T08:49:08Z</time>
      </trkpt>
      <trkpt lat="59.9528771" lon="17.7250014">
        <ele>48.684</ele>
        <time>2014-07-06T08:49:09Z</time>
      </trkpt>
      <trkpt lat="59.9529019" lon="17.7249894">
        <ele>48.684</ele>
        <time>2014-07-06T08:49:10Z</time>
      </trkpt>
      <trkpt lat="59.9529307" lon="17.7249727">
        <ele>49.1646</ele>
        <time>2014-07-06T08:49:11Z</time>
      </trkpt>
      <trkpt lat="59.9529579" lon="17.7249515">
        <ele>49.1646</ele>
        <time>2014-07-06T08:49:12Z</time>
      </trkpt>
      <trkpt lat="59.9529831" lon="17.7249253">
        <ele>48.684</ele>
        <time>2014-07-06T08:49:13Z</time>
      </trkpt>
      <trkpt lat="59.9530081" lon="17.7248964">
        <ele>48.684</ele>
        <time>2014-07-06T08:49:14Z</time>
      </trkpt>
      <trkpt lat="59.9530317" lon="17.7248685">
        <ele>48.2034</ele>
        <time>2014-07-06T08:49:15Z</time>
      </trkpt>
      <trkpt lat="59.9530526" lon="17.7248402">
        <ele>48.2034</ele>
        <time>2014-07-06T08:49:16Z</time>
      </trkpt>
      <trkpt lat="59.9530701" lon="17.7248139">
        <ele>47.2418</ele>
        <time>2014-07-06T08:49:17Z</time>
      </trkpt>
      <trkpt lat="59.953093" lon="17.7247837">
        <ele>47.2418</ele>
        <time>2014-07-06T08:49:18Z</time>
      </trkpt>
      <trkpt lat="59.9531147" lon="17.7247521">
        <ele>47.7225</ele>
        <time>2014-07-06T08:49:19Z</time>
      </trkpt>
      <trkpt lat="59.953136" lon="17.7247286">
        <ele>47.7225</ele>
        <time>2014-07-06T08:49:20Z</time>
      </trkpt>
      <trkpt lat="59.9531543" lon="17.7246962">
        <ele>47.7225</ele>
        <time>2014-07-06T08:49:21Z</time>
      </trkpt>
      <trkpt lat="59.9531719" lon="17.724664">
        <ele>47.7225</ele>
        <time>2014-07-06T08:49:22Z</time>
      </trkpt>
      <trkpt lat="59.9531848" lon="17.7246293">
        <ele>46.7612</ele>
        <time>2014-07-06T08:49:23Z</time>
      </trkpt>
      <trkpt lat="59.9532019" lon="17.7245946">
        <ele>46.2806</ele>
        <time>2014-07-06T08:49:24Z</time>
      </trkpt>
      <trkpt lat="59.9532226" lon="17.7245553">
        <ele>46.2806</ele>
        <time>2014-07-06T08:49:25Z</time>
      </trkpt>
      <trkpt lat="59.9532422" lon="17.7245153">
        <ele>45.7999</ele>
        <time>2014-07-06T08:49:26Z</time>
      </trkpt>
      <trkpt lat="59.9532604" lon="17.7244802">
        <ele>45.7999</ele>
        <time>2014-07-06T08:49:27Z</time>
      </trkpt>
      <trkpt lat="59.9532784" lon="17.7244522">
        <ele>45.7999</ele>
        <time>2014-07-06T08:49:28Z</time>
      </trkpt>
      <trkpt lat="59.9532946" lon="17.724419">
        <ele>45.3192</ele>
        <time>2014-07-06T08:49:29Z</time>
      </trkpt>
      <trkpt lat="59.9533112" lon="17.7243874">
        <ele>45.3192</ele>
        <time>2014-07-06T08:49:30Z</time>
      </trkpt>
      <trkpt lat="59.9533231" lon="17.724348">
        <ele>45.3192</ele>
        <time>2014-07-06T08:49:31Z</time>
      </trkpt>
      <trkpt lat="59.9533368" lon="17.724305">
        <ele>45.7999</ele>
        <time>2014-07-06T08:49:32Z</time>
      </trkpt>
      <trkpt lat="59.9533498" lon="17.7242661">
        <ele>45.7999</ele>
        <time>2014-07-06T08:49:33Z</time>
      </trkpt>
      <trkpt lat="59.9533693" lon="17.7242398">
        <ele>46.2806</ele>
        <time>2014-07-06T08:49:34Z</time>
      </trkpt>
      <trkpt lat="59.9533883" lon="17.724202">
        <ele>46.2806</ele>
        <time>2014-07-06T08:49:35Z</time>
      </trkpt>
      <trkpt lat="59.953409" lon="17.724172">
        <ele>47.2418</ele>
        <time>2014-07-06T08:49:36Z</time>
      </trkpt>
      <trkpt lat="59.9534197" lon="17.7241061">
        <ele>48.684</ele>
        <time>2014-07-06T08:49:37Z</time>
      </trkpt>
      <trkpt lat="59.9534328" lon="17.7240575">
        <ele>49.1646</ele>
        <time>2014-07-06T08:49:38Z</time>
      </trkpt>
      <trkpt lat="59.9534485" lon="17.7240063">
        <ele>50.6066</ele>
        <time>2014-07-06T08:49:39Z</time>
      </trkpt>
      <trkpt lat="59.9534601" lon="17.7239403">
        <ele>51.5679</ele>
        <time>2014-07-06T08:49:40Z</time>
      </trkpt>
      <trkpt lat="59.9534754" lon="17.7238834">
        <ele>52.5292</ele>
        <time>2014-07-06T08:49:41Z</time>
      </trkpt>
      <trkpt lat="59.9534894" lon="17.7238205">
        <ele>53.4905</ele>
        <time>2014-07-06T08:49:42Z</time>
      </trkpt>
      <trkpt lat="59.9535079" lon="17.7237579">
        <ele>54.4518</ele>
        <time>2014-07-06T08:49:43Z</time>
      </trkpt>
      <trkpt lat="59.9535211" lon="17.7236934">
        <ele>55.4131</ele>
        <time>2014-07-06T08:49:44Z</time>
      </trkpt>
      <trkpt lat="59.9535356" lon="17.7236529">
        <ele>55.4131</ele>
        <time>2014-07-06T08:49:45Z</time>
      </trkpt>
      <trkpt lat="59.9535549" lon="17.7236069">
        <ele>55.8938</ele>
        <time>2014-07-06T08:49:46Z</time>
      </trkpt>
      <trkpt lat="59.9535698" lon="17.7235598">
        <ele>56.3745</ele>
        <time>2014-07-06T08:49:47Z</time>
      </trkpt>
      <trkpt lat="59.9535821" lon="17.7235216">
        <ele>56.8551</ele>
        <time>2014-07-06T08:49:48Z</time>
      </trkpt>
      <trkpt lat="59.9535954" lon="17.7234882">
        <ele>56.8551</ele>
        <time>2014-07-06T08:49:49Z</time>
      </trkpt>
      <trkpt lat="59.9536121" lon="17.723458">
        <ele>57.3358</ele>
        <time>2014-07-06T08:49:50Z</time>
      </trkpt>
      <trkpt lat="59.9536344" lon="17.723439">
        <ele>57.8165</ele>
        <time>2014-07-06T08:49:51Z</time>
      </trkpt>
      <trkpt lat="59.9536629" lon="17.7234255">
        <ele>58.2971</ele>
        <time>2014-07-06T08:49:52Z</time>
      </trkpt>
      <trkpt lat="59.9536902" lon="17.7234036">
        <ele>58.7777</ele>
        <time>2014-07-06T08:49:53Z</time>
      </trkpt>
      <trkpt lat="59.9537132" lon="17.723388">
        <ele>58.7777</ele>
        <time>2014-07-06T08:49:54Z</time>
      </trkpt>
      <trkpt lat="59.9537349" lon="17.7233631">
        <ele>58.7777</ele>
        <time>2014-07-06T08:49:55Z</time>
      </trkpt>
      <trkpt lat="59.9537568" lon="17.7233386">
        <ele>58.7777</ele>
        <time>2014-07-06T08:49:56Z</time>
      </trkpt>
      <trkpt lat="59.9537758" lon="17.7233172">
        <ele>58.7777</ele>
        <time>2014-07-06T08:49:57Z</time>
      </trkpt>
      <trkpt lat="59.9537979" lon="17.7232963">
        <ele>58.2971</ele>
        <time>2014-07-06T08:49:58Z</time>
      </trkpt>
      <trkpt lat="59.9538224" lon="17.7232661">
        <ele>58.2971</ele>
        <time>2014-07-06T08:49:59Z</time>
      </trkpt>
      <trkpt lat="59.9538443" lon="17.7232405">
        <ele>58.7777</ele>
        <time>2014-07-06T08:50:00Z</time>
      </trkpt>
      <trkpt lat="59.9538678" lon="17.7232208">
        <ele>58.2971</ele>
        <time>2014-07-06T08:50:01Z</time>
      </trkpt>
      <trkpt lat="59.953889" lon="17.7232064">
        <ele>57.3358</ele>
        <time>2014-07-06T08:50:02Z</time>
      </trkpt>
      <trkpt lat="59.9539075" lon="17.7231795">
        <ele>57.3358</ele>
        <time>2014-07-06T08:50:03Z</time>
      </trkpt>
      <trkpt lat="59.9539224" lon="17.7231487">
        <ele>56.3745</ele>
        <time>2014-07-06T08:50:04Z</time>
      </trkpt>
      <trkpt lat="59.953938" lon="17.7231133">
        <ele>55.8938</ele>
        <time>2014-07-06T08:50:05Z</time>
      </trkpt>
      <trkpt lat="59.9539514" lon="17.7230779">
        <ele>54.9324</ele>
        <time>2014-07-06T08:50:06Z</time>
      </trkpt>
      <trkpt lat="59.9539695" lon="17.7230619">
        <ele>53.9712</ele>
        <time>2014-07-06T08:50:07Z</time>
      </trkpt>
      <trkpt lat="59.9539856" lon="17.7230431">
        <ele>52.5292</ele>
        <time>2014-07-06T08:50:08Z</time>
      </trkpt>
      <trkpt lat="59.9540097" lon="17.723036">
        <ele>52.5292</ele>
        <time>2014-07-06T08:50:09Z</time>
      </trkpt>
      <trkpt lat="59.9540339" lon="17.7230389">
        <ele>51.5679</ele>
        <time>2014-07-06T08:50:10Z</time>
      </trkpt>
      <trkpt lat="59.954053" lon="17.7230313">
        <ele>52.0486</ele>
        <time>2014-07-06T08:50:11Z</time>
      </trkpt>
      <trkpt lat="59.9540631" lon="17.7230183">
        <ele>51.5679</ele>
        <time>2014-07-06T08:50:12Z</time>
      </trkpt>
      <trkpt lat="59.9540722" lon="17.7230168">
        <ele>49.6453</ele>
        <time>2014-07-06T08:50:13Z</time>
      </trkpt>
      <trkpt lat="59.9540902" lon="17.7230244">
        <ele>48.2034</ele>
        <time>2014-07-06T08:50:14Z</time>
      </trkpt>
      <trkpt lat="59.9541213" lon="17.7230438">
        <ele>47.7225</ele>
        <time>2014-07-06T08:50:15Z</time>
      </trkpt>
      <trkpt lat="59.9541457" lon="17.7230681">
        <ele>46.7612</ele>
        <time>2014-07-06T08:50:16Z</time>
      </trkpt>
      <trkpt lat="59.9541746" lon="17.7230862">
        <ele>46.7612</ele>
        <time>2014-07-06T08:50:17Z</time>
      </trkpt>
      <trkpt lat="59.9542052" lon="17.7231114">
        <ele>47.7225</ele>
        <time>2014-07-06T08:50:18Z</time>
      </trkpt>
      <trkpt lat="59.9542254" lon="17.7231297">
        <ele>46.7612</ele>
        <time>2014-07-06T08:50:19Z</time>
      </trkpt>
      <trkpt lat="59.9542462" lon="17.7231472">
        <ele>46.2806</ele>
        <time>2014-07-06T08:50:20Z</time>
      </trkpt>
      <trkpt lat="59.954277" lon="17.7231706">
        <ele>47.7225</ele>
        <time>2014-07-06T08:50:21Z</time>
      </trkpt>
      <trkpt lat="59.9543093" lon="17.7231894">
        <ele>48.2034</ele>
        <time>2014-07-06T08:50:22Z</time>
      </trkpt>
      <trkpt lat="59.9543399" lon="17.7232059">
        <ele>48.684</ele>
        <time>2014-07-06T08:50:23Z</time>
      </trkpt>
      <trkpt lat="59.9543688" lon="17.7232285">
        <ele>49.1646</ele>
        <time>2014-07-06T08:50:24Z</time>
      </trkpt>
      <trkpt lat="59.9543926" lon="17.7232471">
        <ele>49.1646</ele>
        <time>2014-07-06T08:50:25Z</time>
      </trkpt>
      <trkpt lat="59.9544213" lon="17.7232639">
        <ele>49.6453</ele>
        <time>2014-07-06T08:50:26Z</time>
      </trkpt>
      <trkpt lat="59.9544495" lon="17.7232829">
        <ele>49.6453</ele>
        <time>2014-07-06T08:50:27Z</time>
      </trkpt>
      <trkpt lat="59.9544668" lon="17.7233007">
        <ele>48.2034</ele>
        <time>2014-07-06T08:50:28Z</time>
      </trkpt>
      <trkpt lat="59.9545019" lon="17.7233186">
        <ele>50.126</ele>
        <time>2014-07-06T08:50:29Z</time>
      </trkpt>
      <trkpt lat="59.9545335" lon="17.7233398">
        <ele>50.6066</ele>
        <time>2014-07-06T08:50:30Z</time>
      </trkpt>
      <trkpt lat="59.9545601" lon="17.7233493">
        <ele>50.126</ele>
        <time>2014-07-06T08:50:31Z</time>
      </trkpt>
      <trkpt lat="59.9545829" lon="17.7233627">
        <ele>50.126</ele>
        <time>2014-07-06T08:50:32Z</time>
      </trkpt>
      <trkpt lat="59.9546016" lon="17.7233803">
        <ele>49.1646</ele>
        <time>2014-07-06T08:50:33Z</time>
      </trkpt>
      <trkpt lat="59.954632" lon="17.7234012">
        <ele>50.6066</ele>
        <time>2014-07-06T08:50:34Z</time>
      </trkpt>
      <trkpt lat="59.9546513" lon="17.7234175">
        <ele>50.6066</ele>
        <time>2014-07-06T08:50:35Z</time>
      </trkpt>
      <trkpt lat="59.9546716" lon="17.72343">
        <ele>50.126</ele>
        <time>2014-07-06T08:50:36Z</time>
      </trkpt>
      <trkpt lat="59.9546864" lon="17.7234416">
        <ele>49.6453</ele>
        <time>2014-07-06T08:50:37Z</time>
      </trkpt>
      <trkpt lat="59.9547004" lon="17.7234608">
        <ele>48.684</ele>
        <time>2014-07-06T08:50:38Z</time>
      </trkpt>
      <trkpt lat="59.954715" lon="17.7234778">
        <ele>48.2034</ele>
        <time>2014-07-06T08:50:39Z</time>
      </trkpt>
      <trkpt lat="59.9547386" lon="17.7234943">
        <ele>49.6453</ele>
        <time>2014-07-06T08:50:40Z</time>
      </trkpt>
      <trkpt lat="59.95476" lon="17.7235178">
        <ele>50.126</ele>
        <time>2014-07-06T08:50:41Z</time>
      </trkpt>
      <trkpt lat="59.9548155" lon="17.7235523">
        <ele>56.8551</ele>
        <time>2014-07-06T08:50:42Z</time>
      </trkpt>
      <trkpt lat="59.9548486" lon="17.7235742">
        <ele>60.2197</ele>
        <time>2014-07-06T08:50:43Z</time>
      </trkpt>
      <trkpt lat="59.9548738" lon="17.7235824">
        <ele>61.181</ele>
        <time>2014-07-06T08:50:44Z</time>
      </trkpt>
      <trkpt lat="59.9548849" lon="17.7235781">
        <ele>60.7003</ele>
        <time>2014-07-06T08:50:45Z</time>
      </trkpt>
      <trkpt lat="59.9549064" lon="17.7235778">
        <ele>61.181</ele>
        <time>2014-07-06T08:50:46Z</time>
      </trkpt>
      <trkpt lat="59.9549237" lon="17.7235726">
        <ele>60.7003</ele>
        <time>2014-07-06T08:50:47Z</time>
      </trkpt>
      <trkpt lat="59.9549504" lon="17.7235667">
        <ele>61.6617</ele>
        <time>2014-07-06T08:50:48Z</time>
      </trkpt>
      <trkpt lat="59.9549852" lon="17.7235668">
        <ele>63.1036</ele>
        <time>2014-07-06T08:50:49Z</time>
      </trkpt>
      <trkpt lat="59.9550085" lon="17.7235473">
        <ele>62.6229</ele>
        <time>2014-07-06T08:50:50Z</time>
      </trkpt>
      <trkpt lat="59.955034" lon="17.7235208">
        <ele>62.1423</ele>
        <time>2014-07-06T08:50:51Z</time>
      </trkpt>
      <trkpt lat="59.9550584" lon="17.7234978">
        <ele>62.1423</ele>
        <time>2014-07-06T08:50:52Z</time>
      </trkpt>
      <trkpt lat="59.9550886" lon="17.7234737">
        <ele>62.6229</ele>
        <time>2014-07-06T08:50:53Z</time>
      </trkpt>
      <trkpt lat="59.9551101" lon="17.7234471">
        <ele>62.6229</ele>
        <time>2014-07-06T08:50:54Z</time>
      </trkpt>
      <trkpt lat="59.9551314" lon="17.7234301">
        <ele>62.6229</ele>
        <time>2014-07-06T08:50:55Z</time>
      </trkpt>
      <trkpt lat="59.9551491" lon="17.7234144">
        <ele>62.6229</ele>
        <time>2014-07-06T08:50:56Z</time>
      </trkpt>
      <trkpt lat="59.955168" lon="17.723386">
        <ele>62.6229</ele>
        <time>2014-07-06T08:50:57Z</time>
      </trkpt>
      <trkpt lat="59.9551843" lon="17.7233519">
        <ele>62.6229</ele>
        <time>2014-07-06T08:50:58Z</time>
      </trkpt>
      <trkpt lat="59.9552024" lon="17.7233156">
        <ele>63.1036</ele>
        <time>2014-07-06T08:50:59Z</time>
      </trkpt>
      <trkpt lat="59.955221" lon="17.7232914">
        <ele>64.0651</ele>
        <time>2014-07-06T08:51:00Z</time>
      </trkpt>
      <trkpt lat="59.9552408" lon="17.7232782">
        <ele>63.5844</ele>
        <time>2014-07-06T08:51:01Z</time>
      </trkpt>
      <trkpt lat="59.9552626" lon="17.7232656">
        <ele>63.5844</ele>
        <time>2014-07-06T08:51:02Z</time>
      </trkpt>
      <trkpt lat="59.9552853" lon="17.723264">
        <ele>63.1036</ele>
        <time>2014-07-06T08:51:03Z</time>
      </trkpt>
      <trkpt lat="59.9553102" lon="17.7232607">
        <ele>62.6229</ele>
        <time>2014-07-06T08:51:04Z</time>
      </trkpt>
      <trkpt lat="59.955335" lon="17.7232706">
        <ele>62.1423</ele>
        <time>2014-07-06T08:51:05Z</time>
      </trkpt>
      <trkpt lat="59.9553566" lon="17.7232872">
        <ele>61.6617</ele>
        <time>2014-07-06T08:51:06Z</time>
      </trkpt>
      <trkpt lat="59.9553792" lon="17.7233007">
        <ele>61.181</ele>
        <time>2014-07-06T08:51:07Z</time>
      </trkpt>
      <trkpt lat="59.9554061" lon="17.7233151">
        <ele>60.7003</ele>
        <time>2014-07-06T08:51:08Z</time>
      </trkpt>
      <trkpt lat="59.9554341" lon="17.7233229">
        <ele>59.7391</ele>
        <time>2014-07-06T08:51:09Z</time>
      </trkpt>
      <trkpt lat="59.9554612" lon="17.7233323">
        <ele>58.2971</ele>
        <time>2014-07-06T08:51:10Z</time>
      </trkpt>
      <trkpt lat="59.9554899" lon="17.7233455">
        <ele>57.3358</ele>
        <time>2014-07-06T08:51:11Z</time>
      </trkpt>
      <trkpt lat="59.9555162" lon="17.7233676">
        <ele>56.8551</ele>
        <time>2014-07-06T08:51:12Z</time>
      </trkpt>
      <trkpt lat="59.9555375" lon="17.7233825">
        <ele>55.8938</ele>
        <time>2014-07-06T08:51:13Z</time>
      </trkpt>
      <trkpt lat="59.9555567" lon="17.7234032">
        <ele>55.4131</ele>
        <time>2014-07-06T08:51:14Z</time>
      </trkpt>
      <trkpt lat="59.9555726" lon="17.7234213">
        <ele>54.4518</ele>
        <time>2014-07-06T08:51:15Z</time>
      </trkpt>
      <trkpt lat="59.9555867" lon="17.7234313">
        <ele>53.0098</ele>
        <time>2014-07-06T08:51:16Z</time>
      </trkpt>
      <trkpt lat="59.955605" lon="17.7234473">
        <ele>51.5679</ele>
        <time>2014-07-06T08:51:17Z</time>
      </trkpt>
      <trkpt lat="59.9556277" lon="17.7234745">
        <ele>52.0486</ele>
        <time>2014-07-06T08:51:18Z</time>
      </trkpt>
      <trkpt lat="59.955647" lon="17.7235022">
        <ele>51.5679</ele>
        <time>2014-07-06T08:51:19Z</time>
      </trkpt>
      <trkpt lat="59.9556645" lon="17.7235238">
        <ele>50.6066</ele>
        <time>2014-07-06T08:51:20Z</time>
      </trkpt>
      <trkpt lat="59.9556816" lon="17.7235369">
        <ele>48.684</ele>
        <time>2014-07-06T08:51:21Z</time>
      </trkpt>
      <trkpt lat="59.9556979" lon="17.723554">
        <ele>47.2418</ele>
        <time>2014-07-06T08:51:22Z</time>
      </trkpt>
      <trkpt lat="59.9557158" lon="17.7235676">
        <ele>46.2806</ele>
        <time>2014-07-06T08:51:23Z</time>
      </trkpt>
      <trkpt lat="59.9557645" lon="17.7235803">
        <ele>50.126</ele>
        <time>2014-07-06T08:51:24Z</time>
      </trkpt>
      <trkpt lat="59.955799" lon="17.7235745">
        <ele>52.0486</ele>
        <time>2014-07-06T08:51:25Z</time>
      </trkpt>
      <trkpt lat="59.9558255" lon="17.7235605">
        <ele>52.5292</ele>
        <time>2014-07-06T08:51:26Z</time>
      </trkpt>
      <trkpt lat="59.9558484" lon="17.7235358">
        <ele>53.4905</ele>
        <time>2014-07-06T08:51:27Z</time>
      </trkpt>
      <trkpt lat="59.9558645" lon="17.7234953">
        <ele>53.4905</ele>
        <time>2014-07-06T08:51:28Z</time>
      </trkpt>
      <trkpt lat="59.9558789" lon="17.7234499">
        <ele>53.9712</ele>
        <time>2014-07-06T08:51:29Z</time>
      </trkpt>
      <trkpt lat="59.9558919" lon="17.7234037">
        <ele>53.9712</ele>
        <time>2014-07-06T08:51:30Z</time>
      </trkpt>
      <trkpt lat="59.9559038" lon="17.723357">
        <ele>53.9712</ele>
        <time>2014-07-06T08:51:31Z</time>
      </trkpt>
      <trkpt lat="59.9559158" lon="17.7233156">
        <ele>53.9712</ele>
        <time>2014-07-06T08:51:32Z</time>
      </trkpt>
      <trkpt lat="59.9559287" lon="17.7232795">
        <ele>53.9712</ele>
        <time>2014-07-06T08:51:33Z</time>
      </trkpt>
      <trkpt lat="59.955943" lon="17.7232376">
        <ele>53.9712</ele>
        <time>2014-07-06T08:51:34Z</time>
      </trkpt>
      <trkpt lat="59.9559588" lon="17.7231955">
        <ele>54.4518</ele>
        <time>2014-07-06T08:51:35Z</time>
      </trkpt>
      <trkpt lat="59.9559697" lon="17.7231508">
        <ele>54.9324</ele>
        <time>2014-07-06T08:51:36Z</time>
      </trkpt>
      <trkpt lat="59.9559767" lon="17.7231037">
        <ele>55.4131</ele>
        <time>2014-07-06T08:51:37Z</time>
      </trkpt>
      <trkpt lat="59.9559837" lon="17.7230558">
        <ele>55.4131</ele>
        <time>2014-07-06T08:51:38Z</time>
      </trkpt>
      <trkpt lat="59.9559908" lon="17.7230065">
        <ele>55.4131</ele>
        <time>2014-07-06T08:51:39Z</time>
      </trkpt>
      <trkpt lat="59.9559955" lon="17.722966">
        <ele>55.4131</ele>
        <time>2014-07-06T08:51:40Z</time>
      </trkpt>
      <trkpt lat="59.9559976" lon="17.7229333">
        <ele>54.9324</ele>
        <time>2014-07-06T08:51:41Z</time>
      </trkpt>
      <trkpt lat="59.9560001" lon="17.7229034">
        <ele>54.9324</ele>
        <time>2014-07-06T08:51:42Z</time>
      </trkpt>
      <trkpt lat="59.9560012" lon="17.7228718">
        <ele>54.9324</ele>
        <time>2014-07-06T08:51:43Z</time>
      </trkpt>
      <trkpt lat="59.9560006" lon="17.7228432">
        <ele>54.9324</ele>
        <time>2014-07-06T08:51:44Z</time>
      </trkpt>
      <trkpt lat="59.9559903" lon="17.7228047">
        <ele>54.9324</ele>
        <time>2014-07-06T08:51:45Z</time>
      </trkpt>
      <trkpt lat="59.9559789" lon="17.7227583">
        <ele>55.4131</ele>
        <time>2014-07-06T08:51:46Z</time>
      </trkpt>
      <trkpt lat="59.9559738" lon="17.7227161">
        <ele>54.9324</ele>
        <time>2014-07-06T08:51:47Z</time>
      </trkpt>
      <trkpt lat="59.9559678" lon="17.7226734">
        <ele>54.9324</ele>
        <time>2014-07-06T08:51:48Z</time>
      </trkpt>
      <trkpt lat="59.9559637" lon="17.7226283">
        <ele>55.4131</ele>
        <time>2014-07-06T08:51:49Z</time>
      </trkpt>
      <trkpt lat="59.9559575" lon="17.7225794">
        <ele>54.4518</ele>
        <time>2014-07-06T08:51:50Z</time>
      </trkpt>
      <trkpt lat="59.9559524" lon="17.7225322">
        <ele>54.9324</ele>
        <time>2014-07-06T08:51:51Z</time>
      </trkpt>
      <trkpt lat="59.9559516" lon="17.7224805">
        <ele>55.4131</ele>
        <time>2014-07-06T08:51:52Z</time>
      </trkpt>
      <trkpt lat="59.9559494" lon="17.7224398">
        <ele>55.8938</ele>
        <time>2014-07-06T08:51:53Z</time>
      </trkpt>
      <trkpt lat="59.9559432" lon="17.7224071">
        <ele>55.8938</ele>
        <time>2014-07-06T08:51:54Z</time>
      </trkpt>
      <trkpt lat="59.9559426" lon="17.7223584">
        <ele>56.8551</ele>
        <time>2014-07-06T08:51:55Z</time>
      </trkpt>
      <trkpt lat="59.9559298" lon="17.7222987">
        <ele>56.8551</ele>
        <time>2014-07-06T08:51:56Z</time>
      </trkpt>
      <trkpt lat="59.9559235" lon="17.7222453">
        <ele>57.8165</ele>
        <time>2014-07-06T08:51:57Z</time>
      </trkpt>
      <trkpt lat="59.9559224" lon="17.7221915">
        <ele>59.2584</ele>
        <time>2014-07-06T08:51:58Z</time>
      </trkpt>
      <trkpt lat="59.9559253" lon="17.7221388">
        <ele>59.7391</ele>
        <time>2014-07-06T08:51:59Z</time>
      </trkpt>
      <trkpt lat="59.9559312" lon="17.7220894">
        <ele>60.2197</ele>
        <time>2014-07-06T08:52:00Z</time>
      </trkpt>
      <trkpt lat="59.9559313" lon="17.7220401">
        <ele>60.7003</ele>
        <time>2014-07-06T08:52:01Z</time>
      </trkpt>
      <trkpt lat="59.9559281" lon="17.7219891">
        <ele>61.6617</ele>
        <time>2014-07-06T08:52:02Z</time>
      </trkpt>
      <trkpt lat="59.9559224" lon="17.7219357">
        <ele>62.1423</ele>
        <time>2014-07-06T08:52:03Z</time>
      </trkpt>
      <trkpt lat="59.9559214" lon="17.7218822">
        <ele>62.6229</ele>
        <time>2014-07-06T08:52:04Z</time>
      </trkpt>
      <trkpt lat="59.9559261" lon="17.7218259">
        <ele>63.1036</ele>
        <time>2014-07-06T08:52:05Z</time>
      </trkpt>
      <trkpt lat="59.9559323" lon="17.721775">
        <ele>64.0651</ele>
        <time>2014-07-06T08:52:06Z</time>
      </trkpt>
      <trkpt lat="59.9559383" lon="17.7217259">
        <ele>64.5457</ele>
        <time>2014-07-06T08:52:07Z</time>
      </trkpt>
      <trkpt lat="59.9559478" lon="17.7216814">
        <ele>65.5071</ele>
        <time>2014-07-06T08:52:08Z</time>
      </trkpt>
      <trkpt lat="59.9559623" lon="17.721634">
        <ele>66.4683</ele>
        <time>2014-07-06T08:52:09Z</time>
      </trkpt>
      <trkpt lat="59.9559814" lon="17.7215855">
        <ele>67.9103</ele>
        <time>2014-07-06T08:52:10Z</time>
      </trkpt>
      <trkpt lat="59.9559943" lon="17.7215296">
        <ele>68.3909</ele>
        <time>2014-07-06T08:52:11Z</time>
      </trkpt>
      <trkpt lat="59.9559756" lon="17.7214613">
        <ele>65.0264</ele>
        <time>2014-07-06T08:52:12Z</time>
      </trkpt>
      <trkpt lat="59.9559679" lon="17.7214021">
        <ele>63.1036</ele>
        <time>2014-07-06T08:52:13Z</time>
      </trkpt>
      <trkpt lat="59.9559614" lon="17.7213452">
        <ele>62.1423</ele>
        <time>2014-07-06T08:52:14Z</time>
      </trkpt>
      <trkpt lat="59.9559468" lon="17.7213">
        <ele>61.6617</ele>
        <time>2014-07-06T08:52:15Z</time>
      </trkpt>
      <trkpt lat="59.955931" lon="17.7212644">
        <ele>60.2197</ele>
        <time>2014-07-06T08:52:16Z</time>
      </trkpt>
      <trkpt lat="59.9559168" lon="17.7212264">
        <ele>59.2584</ele>
        <time>2014-07-06T08:52:17Z</time>
      </trkpt>
      <trkpt lat="59.9559032" lon="17.7211976">
        <ele>58.2971</ele>
        <time>2014-07-06T08:52:18Z</time>
      </trkpt>
      <trkpt lat="59.9558944" lon="17.7211846">
        <ele>58.2971</ele>
        <time>2014-07-06T08:52:19Z</time>
      </trkpt>
      <trkpt lat="59.9558768" lon="17.721182">
        <ele>57.8165</ele>
        <time>2014-07-06T08:52:20Z</time>
      </trkpt>
      <trkpt lat="59.9558634" lon="17.7211725">
        <ele>57.8165</ele>
        <time>2014-07-06T08:52:21Z</time>
      </trkpt>
      <trkpt lat="59.9558499" lon="17.7211735">
        <ele>58.2971</ele>
        <time>2014-07-06T08:52:22Z</time>
      </trkpt>
      <trkpt lat="59.9558309" lon="17.7211975">
        <ele>58.7777</ele>
        <time>2014-07-06T08:52:23Z</time>
      </trkpt>
      <trkpt lat="59.95581" lon="17.7212096">
        <ele>58.7777</ele>
        <time>2014-07-06T08:52:24Z</time>
      </trkpt>
      <trkpt lat="59.9557892" lon="17.7212228">
        <ele>59.2584</ele>
        <time>2014-07-06T08:52:25Z</time>
      </trkpt>
      <trkpt lat="59.9557684" lon="17.7212381">
        <ele>59.7391</ele>
        <time>2014-07-06T08:52:26Z</time>
      </trkpt>
      <trkpt lat="59.95575" lon="17.7212515">
        <ele>59.7391</ele>
        <time>2014-07-06T08:52:27Z</time>
      </trkpt>
      <trkpt lat="59.9557359" lon="17.721267">
        <ele>59.7391</ele>
        <time>2014-07-06T08:52:28Z</time>
      </trkpt>
      <trkpt lat="59.9557176" lon="17.721284">
        <ele>59.2584</ele>
        <time>2014-07-06T08:52:29Z</time>
      </trkpt>
      <trkpt lat="59.9556936" lon="17.7212996">
        <ele>58.7777</ele>
        <time>2014-07-06T08:52:30Z</time>
      </trkpt>
      <trkpt lat="59.9556769" lon="17.7213089">
        <ele>58.2971</ele>
        <time>2014-07-06T08:52:31Z</time>
      </trkpt>
      <trkpt lat="59.9556623" lon="17.7213047">
        <ele>57.3358</ele>
        <time>2014-07-06T08:52:32Z</time>
      </trkpt>
      <trkpt lat="59.9556412" lon="17.7212964">
        <ele>56.8551</ele>
        <time>2014-07-06T08:52:33Z</time>
      </trkpt>
      <trkpt lat="59.9556151" lon="17.7212978">
        <ele>55.8938</ele>
        <time>2014-07-06T08:52:34Z</time>
      </trkpt>
      <trkpt lat="59.9555956" lon="17.7212898">
        <ele>55.8938</ele>
        <time>2014-07-06T08:52:35Z</time>
      </trkpt>
      <trkpt lat="59.9555798" lon="17.7212761">
        <ele>55.8938</ele>
        <time>2014-07-06T08:52:36Z</time>
      </trkpt>
      <trkpt lat="59.9555597" lon="17.7212722">
        <ele>54.9324</ele>
        <time>2014-07-06T08:52:37Z</time>
      </trkpt>
      <trkpt lat="59.9555319" lon="17.7212756">
        <ele>54.4518</ele>
        <time>2014-07-06T08:52:38Z</time>
      </trkpt>
      <trkpt lat="59.9555001" lon="17.7212811">
        <ele>53.9712</ele>
        <time>2014-07-06T08:52:39Z</time>
      </trkpt>
      <trkpt lat="59.9554671" lon="17.7212846">
        <ele>53.4905</ele>
        <time>2014-07-06T08:52:40Z</time>
      </trkpt>
      <trkpt lat="59.9554379" lon="17.7212748">
        <ele>53.0098</ele>
        <time>2014-07-06T08:52:41Z</time>
      </trkpt>
      <trkpt lat="59.9554143" lon="17.7212588">
        <ele>52.5292</ele>
        <time>2014-07-06T08:52:42Z</time>
      </trkpt>
      <trkpt lat="59.9553892" lon="17.7212564">
        <ele>52.0486</ele>
        <time>2014-07-06T08:52:43Z</time>
      </trkpt>
      <trkpt lat="59.9553661" lon="17.7212509">
        <ele>51.5679</ele>
        <time>2014-07-06T08:52:44Z</time>
      </trkpt>
      <trkpt lat="59.9553441" lon="17.7212331">
        <ele>51.0872</ele>
        <time>2014-07-06T08:52:45Z</time>
      </trkpt>
      <trkpt lat="59.9553265" lon="17.721211">
        <ele>50.6066</ele>
        <time>2014-07-06T08:52:46Z</time>
      </trkpt>
      <trkpt lat="59.9553136" lon="17.7212038">
        <ele>50.126</ele>
        <time>2014-07-06T08:52:47Z</time>
      </trkpt>
      <trkpt lat="59.955291" lon="17.7212149">
        <ele>50.126</ele>
        <time>2014-07-06T08:52:48Z</time>
      </trkpt>
      <trkpt lat="59.9552744" lon="17.7212053">
        <ele>50.126</ele>
        <time>2014-07-06T08:52:49Z</time>
      </trkpt>
      <trkpt lat="59.9552567" lon="17.7211963">
        <ele>49.6453</ele>
        <time>2014-07-06T08:52:50Z</time>
      </trkpt>
      <trkpt lat="59.9552382" lon="17.7211937">
        <ele>49.1646</ele>
        <time>2014-07-06T08:52:51Z</time>
      </trkpt>
      <trkpt lat="59.9552178" lon="17.7211872">
        <ele>48.684</ele>
        <time>2014-07-06T08:52:52Z</time>
      </trkpt>
      <trkpt lat="59.9551852" lon="17.7211975">
        <ele>48.2034</ele>
        <time>2014-07-06T08:52:53Z</time>
      </trkpt>
      <trkpt lat="59.9551473" lon="17.7212114">
        <ele>47.7225</ele>
        <time>2014-07-06T08:52:54Z</time>
      </trkpt>
      <trkpt lat="59.9551142" lon="17.721209">
        <ele>47.7225</ele>
        <time>2014-07-06T08:52:55Z</time>
      </trkpt>
      <trkpt lat="59.9550836" lon="17.7212031">
        <ele>47.7225</ele>
        <time>2014-07-06T08:52:56Z</time>
      </trkpt>
      <trkpt lat="59.9550518" lon="17.7211925">
        <ele>47.2418</ele>
        <time>2014-07-06T08:52:57Z</time>
      </trkpt>
      <trkpt lat="59.9550242" lon="17.7211842">
        <ele>46.7612</ele>
        <time>2014-07-06T08:52:58Z</time>
      </trkpt>
      <trkpt lat="59.9549906" lon="17.7211804">
        <ele>46.7612</ele>
        <time>2014-07-06T08:52:59Z</time>
      </trkpt>
      <trkpt lat="59.9549641" lon="17.7211613">
        <ele>46.7612</ele>
        <time>2014-07-06T08:53:00Z</time>
      </trkpt>
      <trkpt lat="59.9549319" lon="17.7211338">
        <ele>46.7612</ele>
        <time>2014-07-06T08:53:01Z</time>
      </trkpt>
      <trkpt lat="59.9549012" lon="17.7211022">
        <ele>46.2806</ele>
        <time>2014-07-06T08:53:02Z</time>
      </trkpt>
      <trkpt lat="59.9548828" lon="17.7210573">
        <ele>46.7612</ele>
        <time>2014-07-06T08:53:03Z</time>
      </trkpt>
      <trkpt lat="59.9548662" lon="17.7210197">
        <ele>46.7612</ele>
        <time>2014-07-06T08:53:04Z</time>
      </trkpt>
      <trkpt lat="59.954852" lon="17.7209866">
        <ele>46.7612</ele>
        <time>2014-07-06T08:53:05Z</time>
      </trkpt>
      <trkpt lat="59.9548346" lon="17.7209452">
        <ele>47.2418</ele>
        <time>2014-07-06T08:53:06Z</time>
      </trkpt>
      <trkpt lat="59.9548189" lon="17.7209026">
        <ele>48.2034</ele>
        <time>2014-07-06T08:53:07Z</time>
      </trkpt>
      <trkpt lat="59.9548113" lon="17.7208606">
        <ele>48.684</ele>
        <time>2014-07-06T08:53:08Z</time>
      </trkpt>
      <trkpt lat="59.9548088" lon="17.7208168">
        <ele>49.1646</ele>
        <time>2014-07-06T08:53:09Z</time>
      </trkpt>
      <trkpt lat="59.9548106" lon="17.7207706">
        <ele>48.684</ele>
        <time>2014-07-06T08:53:10Z</time>
      </trkpt>
      <trkpt lat="59.9548155" lon="17.7207213">
        <ele>48.684</ele>
        <time>2014-07-06T08:53:11Z</time>
      </trkpt>
      <trkpt lat="59.9548231" lon="17.7206721">
        <ele>49.6453</ele>
        <time>2014-07-06T08:53:12Z</time>
      </trkpt>
      <trkpt lat="59.954833" lon="17.7206306">
        <ele>49.6453</ele>
        <time>2014-07-06T08:53:13Z</time>
      </trkpt>
      <trkpt lat="59.9548396" lon="17.7205955">
        <ele>50.126</ele>
        <time>2014-07-06T08:53:14Z</time>
      </trkpt>
      <trkpt lat="59.9548517" lon="17.7205608">
        <ele>50.6066</ele>
        <time>2014-07-06T08:53:15Z</time>
      </trkpt>
      <trkpt lat="59.9548689" lon="17.7205313">
        <ele>50.6066</ele>
        <time>2014-07-06T08:53:16Z</time>
      </trkpt>
      <trkpt lat="59.9548883" lon="17.7205128">
        <ele>50.6066</ele>
        <time>2014-07-06T08:53:17Z</time>
      </trkpt>
      <trkpt lat="59.9549082" lon="17.7204961">
        <ele>51.0872</ele>
        <time>2014-07-06T08:53:18Z</time>
      </trkpt>
      <trkpt lat="59.9549284" lon="17.7204749">
        <ele>51.0872</ele>
        <time>2014-07-06T08:53:19Z</time>
      </trkpt>
      <trkpt lat="59.9549434" lon="17.7204345">
        <ele>52.5292</ele>
        <time>2014-07-06T08:53:20Z</time>
      </trkpt>
      <trkpt lat="59.9549589" lon="17.7203951">
        <ele>53.9712</ele>
        <time>2014-07-06T08:53:21Z</time>
      </trkpt>
      <trkpt lat="59.9549748" lon="17.7203635">
        <ele>54.9324</ele>
        <time>2014-07-06T08:53:22Z</time>
      </trkpt>
      <trkpt lat="59.9549909" lon="17.720333">
        <ele>55.8938</ele>
        <time>2014-07-06T08:53:23Z</time>
      </trkpt>
      <trkpt lat="59.9550076" lon="17.7203018">
        <ele>56.8551</ele>
        <time>2014-07-06T08:53:24Z</time>
      </trkpt>
      <trkpt lat="59.9550258" lon="17.7202688">
        <ele>57.3358</ele>
        <time>2014-07-06T08:53:25Z</time>
      </trkpt>
      <trkpt lat="59.9550419" lon="17.7202417">
        <ele>57.3358</ele>
        <time>2014-07-06T08:53:26Z</time>
      </trkpt>
      <trkpt lat="59.9550626" lon="17.7202116">
        <ele>58.2971</ele>
        <time>2014-07-06T08:53:27Z</time>
      </trkpt>
      <trkpt lat="59.9550811" lon="17.7201807">
        <ele>58.7777</ele>
        <time>2014-07-06T08:53:28Z</time>
      </trkpt>
      <trkpt lat="59.9550993" lon="17.7201527">
        <ele>58.7777</ele>
        <time>2014-07-06T08:53:29Z</time>
      </trkpt>
      <trkpt lat="59.9551258" lon="17.7201162">
        <ele>59.2584</ele>
        <time>2014-07-06T08:53:30Z</time>
      </trkpt>
      <trkpt lat="59.9551511" lon="17.7200766">
        <ele>59.7391</ele>
        <time>2014-07-06T08:53:31Z</time>
      </trkpt>
      <trkpt lat="59.9551775" lon="17.7200347">
        <ele>59.2584</ele>
        <time>2014-07-06T08:53:32Z</time>
      </trkpt>
      <trkpt lat="59.9552072" lon="17.7199982">
        <ele>59.2584</ele>
        <time>2014-07-06T08:53:33Z</time>
      </trkpt>
      <trkpt lat="59.9552371" lon="17.7199776">
        <ele>58.7777</ele>
        <time>2014-07-06T08:53:34Z</time>
      </trkpt>
      <trkpt lat="59.9552769" lon="17.7199642">
        <ele>58.7777</ele>
        <time>2014-07-06T08:53:35Z</time>
      </trkpt>
      <trkpt lat="59.9553164" lon="17.7199471">
        <ele>58.7777</ele>
        <time>2014-07-06T08:53:36Z</time>
      </trkpt>
      <trkpt lat="59.9553475" lon="17.7199212">
        <ele>58.2971</ele>
        <time>2014-07-06T08:53:37Z</time>
      </trkpt>
      <trkpt lat="59.9553837" lon="17.7198994">
        <ele>57.8165</ele>
        <time>2014-07-06T08:53:38Z</time>
      </trkpt>
      <trkpt lat="59.9554258" lon="17.7198788">
        <ele>57.8165</ele>
        <time>2014-07-06T08:53:39Z</time>
      </trkpt>
      <trkpt lat="59.9554583" lon="17.7198552">
        <ele>57.3358</ele>
        <time>2014-07-06T08:53:40Z</time>
      </trkpt>
      <trkpt lat="59.9554919" lon="17.719844">
        <ele>56.8551</ele>
        <time>2014-07-06T08:53:41Z</time>
      </trkpt>
      <trkpt lat="59.9555161" lon="17.7198342">
        <ele>56.3745</ele>
        <time>2014-07-06T08:53:42Z</time>
      </trkpt>
      <trkpt lat="59.9555412" lon="17.7198308">
        <ele>56.3745</ele>
        <time>2014-07-06T08:53:43Z</time>
      </trkpt>
      <trkpt lat="59.9555648" lon="17.7198179">
        <ele>56.3745</ele>
        <time>2014-07-06T08:53:44Z</time>
      </trkpt>
      <trkpt lat="59.9555863" lon="17.7198093">
        <ele>56.3745</ele>
        <time>2014-07-06T08:53:45Z</time>
      </trkpt>
      <trkpt lat="59.9556063" lon="17.7197915">
        <ele>56.8551</ele>
        <time>2014-07-06T08:53:46Z</time>
      </trkpt>
      <trkpt lat="59.955628" lon="17.7197672">
        <ele>57.3358</ele>
        <time>2014-07-06T08:53:47Z</time>
      </trkpt>
      <trkpt lat="59.955649" lon="17.7197485">
        <ele>57.3358</ele>
        <time>2014-07-06T08:53:48Z</time>
      </trkpt>
      <trkpt lat="59.9556664" lon="17.7197267">
        <ele>56.8551</ele>
        <time>2014-07-06T08:53:49Z</time>
      </trkpt>
      <trkpt lat="59.9556838" lon="17.7197044">
        <ele>56.3745</ele>
        <time>2014-07-06T08:53:50Z</time>
      </trkpt>
      <trkpt lat="59.9557024" lon="17.7196814">
        <ele>56.3745</ele>
        <time>2014-07-06T08:53:51Z</time>
      </trkpt>
      <trkpt lat="59.955724" lon="17.719662">
        <ele>55.8938</ele>
        <time>2014-07-06T08:53:52Z</time>
      </trkpt>
      <trkpt lat="59.9557437" lon="17.719635">
        <ele>55.4131</ele>
        <time>2014-07-06T08:53:53Z</time>
      </trkpt>
      <trkpt lat="59.9557577" lon="17.7196053">
        <ele>54.9324</ele>
        <time>2014-07-06T08:53:54Z</time>
      </trkpt>
      <trkpt lat="59.9557696" lon="17.7195814">
        <ele>54.9324</ele>
        <time>2014-07-06T08:53:55Z</time>
      </trkpt>
      <trkpt lat="59.9557805" lon="17.719563">
        <ele>53.9712</ele>
        <time>2014-07-06T08:53:56Z</time>
      </trkpt>
      <trkpt lat="59.955797" lon="17.7195423">
        <ele>53.0098</ele>
        <time>2014-07-06T08:53:57Z</time>
      </trkpt>
      <trkpt lat="59.9558155" lon="17.7195157">
        <ele>53.4905</ele>
        <time>2014-07-06T08:53:58Z</time>
      </trkpt>
      <trkpt lat="59.955837" lon="17.7194907">
        <ele>53.9712</ele>
        <time>2014-07-06T08:53:59Z</time>
      </trkpt>
      <trkpt lat="59.9558645" lon="17.7194705">
        <ele>53.9712</ele>
        <time>2014-07-06T08:54:00Z</time>
      </trkpt>
      <trkpt lat="59.9558935" lon="17.7194492">
        <ele>53.9712</ele>
        <time>2014-07-06T08:54:01Z</time>
      </trkpt>
      <trkpt lat="59.9559151" lon="17.7194232">
        <ele>54.4518</ele>
        <time>2014-07-06T08:54:02Z</time>
      </trkpt>
      <trkpt lat="59.9559347" lon="17.7193938">
        <ele>54.9324</ele>
        <time>2014-07-06T08:54:03Z</time>
      </trkpt>
      <trkpt lat="59.9559526" lon="17.7193654">
        <ele>54.9324</ele>
        <time>2014-07-06T08:54:04Z</time>
      </trkpt>
      <trkpt lat="59.9559723" lon="17.7193309">
        <ele>55.8938</ele>
        <time>2014-07-06T08:54:05Z</time>
      </trkpt>
      <trkpt lat="59.9559906" lon="17.7193006">
        <ele>56.3745</ele>
        <time>2014-07-06T08:54:06Z</time>
      </trkpt>
      <trkpt lat="59.956006" lon="17.7192629">
        <ele>56.8551</ele>
        <time>2014-07-06T08:54:07Z</time>
      </trkpt>
      <trkpt lat="59.9560245" lon="17.719224">
        <ele>57.3358</ele>
        <time>2014-07-06T08:54:08Z</time>
      </trkpt>
      <trkpt lat="59.9560495" lon="17.7192048">
        <ele>57.3358</ele>
        <time>2014-07-06T08:54:09Z</time>
      </trkpt>
      <trkpt lat="59.9560719" lon="17.7191733">
        <ele>57.8165</ele>
        <time>2014-07-06T08:54:10Z</time>
      </trkpt>
      <trkpt lat="59.9560868" lon="17.719125">
        <ele>57.8165</ele>
        <time>2014-07-06T08:54:11Z</time>
      </trkpt>
      <trkpt lat="59.9561007" lon="17.7190748">
        <ele>57.3358</ele>
        <time>2014-07-06T08:54:12Z</time>
      </trkpt>
      <trkpt lat="59.9561198" lon="17.7190271">
        <ele>57.8165</ele>
        <time>2014-07-06T08:54:13Z</time>
      </trkpt>
      <trkpt lat="59.9561334" lon="17.7189778">
        <ele>57.8165</ele>
        <time>2014-07-06T08:54:14Z</time>
      </trkpt>
      <trkpt lat="59.9561468" lon="17.7189259">
        <ele>57.8165</ele>
        <time>2014-07-06T08:54:15Z</time>
      </trkpt>
      <trkpt lat="59.9561569" lon="17.7188773">
        <ele>57.8165</ele>
        <time>2014-07-06T08:54:16Z</time>
      </trkpt>
      <trkpt lat="59.9561644" lon="17.7188345">
        <ele>57.3358</ele>
        <time>2014-07-06T08:54:17Z</time>
      </trkpt>
      <trkpt lat="59.9561753" lon="17.7187863">
        <ele>57.3358</ele>
        <time>2014-07-06T08:54:18Z</time>
      </trkpt>
      <trkpt lat="59.9561854" lon="17.718738">
        <ele>57.3358</ele>
        <time>2014-07-06T08:54:19Z</time>
      </trkpt>
      <trkpt lat="59.9561923" lon="17.7186929">
        <ele>56.8551</ele>
        <time>2014-07-06T08:54:20Z</time>
      </trkpt>
      <trkpt lat="59.9561955" lon="17.7186425">
        <ele>56.3745</ele>
        <time>2014-07-06T08:54:21Z</time>
      </trkpt>
      <trkpt lat="59.9561964" lon="17.7185915">
        <ele>55.8938</ele>
        <time>2014-07-06T08:54:22Z</time>
      </trkpt>
      <trkpt lat="59.9561912" lon="17.7185416">
        <ele>56.3745</ele>
        <time>2014-07-06T08:54:23Z</time>
      </trkpt>
      <trkpt lat="59.9561814" lon="17.7185004">
        <ele>56.3745</ele>
        <time>2014-07-06T08:54:24Z</time>
      </trkpt>
      <trkpt lat="59.9561747" lon="17.7184552">
        <ele>55.8938</ele>
        <time>2014-07-06T08:54:25Z</time>
      </trkpt>
      <trkpt lat="59.9561654" lon="17.7184133">
        <ele>56.3745</ele>
        <time>2014-07-06T08:54:26Z</time>
      </trkpt>
      <trkpt lat="59.9561499" lon="17.718377">
        <ele>55.8938</ele>
        <time>2014-07-06T08:54:27Z</time>
      </trkpt>
      <trkpt lat="59.9561317" lon="17.7183386">
        <ele>55.4131</ele>
        <time>2014-07-06T08:54:28Z</time>
      </trkpt>
      <trkpt lat="59.9561125" lon="17.7182997">
        <ele>54.9324</ele>
        <time>2014-07-06T08:54:29Z</time>
      </trkpt>
      <trkpt lat="59.9560976" lon="17.7182605">
        <ele>54.4518</ele>
        <time>2014-07-06T08:54:30Z</time>
      </trkpt>
      <trkpt lat="59.9560803" lon="17.7182158">
        <ele>53.9712</ele>
        <time>2014-07-06T08:54:31Z</time>
      </trkpt>
      <trkpt lat="59.9560617" lon="17.7181729">
        <ele>53.9712</ele>
        <time>2014-07-06T08:54:32Z</time>
      </trkpt>
      <trkpt lat="59.9560473" lon="17.7181335">
        <ele>53.9712</ele>
        <time>2014-07-06T08:54:33Z</time>
      </trkpt>
      <trkpt lat="59.9560342" lon="17.7180921">
        <ele>53.9712</ele>
        <time>2014-07-06T08:54:34Z</time>
      </trkpt>
      <trkpt lat="59.9560184" lon="17.7180521">
        <ele>53.9712</ele>
        <time>2014-07-06T08:54:35Z</time>
      </trkpt>
      <trkpt lat="59.9560008" lon="17.7180144">
        <ele>53.9712</ele>
        <time>2014-07-06T08:54:36Z</time>
      </trkpt>
      <trkpt lat="59.9559831" lon="17.7179803">
        <ele>53.4905</ele>
        <time>2014-07-06T08:54:37Z</time>
      </trkpt>
      <trkpt lat="59.9559634" lon="17.7179471">
        <ele>54.4518</ele>
        <time>2014-07-06T08:54:38Z</time>
      </trkpt>
      <trkpt lat="59.9559431" lon="17.7179251">
        <ele>54.9324</ele>
        <time>2014-07-06T08:54:39Z</time>
      </trkpt>
      <trkpt lat="59.9559369" lon="17.7179106">
        <ele>54.9324</ele>
        <time>2014-07-06T08:54:40Z</time>
      </trkpt>
      <trkpt lat="59.9559324" lon="17.717903">
        <ele>54.9324</ele>
        <time>2014-07-06T08:54:41Z</time>
      </trkpt>
      <trkpt lat="59.9559234" lon="17.7179066">
        <ele>55.4131</ele>
        <time>2014-07-06T08:54:42Z</time>
      </trkpt>
      <trkpt lat="59.9559172" lon="17.7179072">
        <ele>55.4131</ele>
        <time>2014-07-06T08:54:43Z</time>
      </trkpt>
      <trkpt lat="59.9559124" lon="17.7179069">
        <ele>55.4131</ele>
        <time>2014-07-06T08:54:44Z</time>
      </trkpt>
      <trkpt lat="59.95591" lon="17.7178945">
        <ele>55.4131</ele>
        <time>2014-07-06T08:54:45Z</time>
      </trkpt>
      <trkpt lat="59.9559059" lon="17.7178819">
        <ele>55.4131</ele>
        <time>2014-07-06T08:54:46Z</time>
      </trkpt>
      <trkpt lat="59.9558981" lon="17.7178712">
        <ele>55.4131</ele>
        <time>2014-07-06T08:54:47Z</time>
      </trkpt>
      <trkpt lat="59.9558335" lon="17.7177248">
        <ele>54.9324</ele>
        <time>2014-07-06T08:54:58Z</time>
      </trkpt>
      <trkpt lat="59.9558271" lon="17.7177124">
        <ele>55.4131</ele>
        <time>2014-07-06T08:54:59Z</time>
      </trkpt>
      <trkpt lat="59.9558178" lon="17.7176835">
        <ele>54.9324</ele>
        <time>2014-07-06T08:55:00Z</time>
      </trkpt>
      <trkpt lat="59.9558079" lon="17.7176514">
        <ele>54.9324</ele>
        <time>2014-07-06T08:55:01Z</time>
      </trkpt>
      <trkpt lat="59.955795" lon="17.7176129">
        <ele>54.4518</ele>
        <time>2014-07-06T08:55:02Z</time>
      </trkpt>
      <trkpt lat="59.9557835" lon="17.7175742">
        <ele>54.4518</ele>
        <time>2014-07-06T08:55:03Z</time>
      </trkpt>
      <trkpt lat="59.9557726" lon="17.717532">
        <ele>54.4518</ele>
        <time>2014-07-06T08:55:04Z</time>
      </trkpt>
      <trkpt lat="59.9557632" lon="17.7174901">
        <ele>53.9712</ele>
        <time>2014-07-06T08:55:05Z</time>
      </trkpt>
      <trkpt lat="59.9557554" lon="17.7174532">
        <ele>53.9712</ele>
        <time>2014-07-06T08:55:06Z</time>
      </trkpt>
      <trkpt lat="59.9557487" lon="17.7174169">
        <ele>53.9712</ele>
        <time>2014-07-06T08:55:07Z</time>
      </trkpt>
      <trkpt lat="59.9557385" lon="17.7173846">
        <ele>54.4518</ele>
        <time>2014-07-06T08:55:08Z</time>
      </trkpt>
      <trkpt lat="59.9557298" lon="17.717341">
        <ele>54.9324</ele>
        <time>2014-07-06T08:55:09Z</time>
      </trkpt>
      <trkpt lat="59.9557189" lon="17.7172969">
        <ele>54.9324</ele>
        <time>2014-07-06T08:55:10Z</time>
      </trkpt>
      <trkpt lat="59.9557033" lon="17.7172539">
        <ele>54.9324</ele>
        <time>2014-07-06T08:55:11Z</time>
      </trkpt>
      <trkpt lat="59.9556879" lon="17.7172083">
        <ele>54.9324</ele>
        <time>2014-07-06T08:55:12Z</time>
      </trkpt>
      <trkpt lat="59.9556764" lon="17.7171607">
        <ele>54.4518</ele>
        <time>2014-07-06T08:55:13Z</time>
      </trkpt>
      <trkpt lat="59.9556682" lon="17.7171137">
        <ele>54.4518</ele>
        <time>2014-07-06T08:55:14Z</time>
      </trkpt>
      <trkpt lat="59.9556587" lon="17.7170636">
        <ele>54.4518</ele>
        <time>2014-07-06T08:55:15Z</time>
      </trkpt>
      <trkpt lat="59.9556474" lon="17.717013">
        <ele>53.9712</ele>
        <time>2014-07-06T08:55:16Z</time>
      </trkpt>
      <trkpt lat="59.9556334" lon="17.7169711">
        <ele>53.4905</ele>
        <time>2014-07-06T08:55:17Z</time>
      </trkpt>
      <trkpt lat="59.9556235" lon="17.7169259">
        <ele>53.0098</ele>
        <time>2014-07-06T08:55:18Z</time>
      </trkpt>
      <trkpt lat="59.9556213" lon="17.7168772">
        <ele>52.5292</ele>
        <time>2014-07-06T08:55:19Z</time>
      </trkpt>
      <trkpt lat="59.9556204" lon="17.7168319">
        <ele>52.5292</ele>
        <time>2014-07-06T08:55:20Z</time>
      </trkpt>
      <trkpt lat="59.9556179" lon="17.7167872">
        <ele>51.5679</ele>
        <time>2014-07-06T08:55:21Z</time>
      </trkpt>
      <trkpt lat="59.9556099" lon="17.7167426">
        <ele>51.5679</ele>
        <time>2014-07-06T08:55:22Z</time>
      </trkpt>
      <trkpt lat="59.9556038" lon="17.7166939">
        <ele>51.5679</ele>
        <time>2014-07-06T08:55:23Z</time>
      </trkpt>
      <trkpt lat="59.9556019" lon="17.7166503">
        <ele>51.5679</ele>
        <time>2014-07-06T08:55:24Z</time>
      </trkpt>
      <trkpt lat="59.9556008" lon="17.7166047">
        <ele>51.5679</ele>
        <time>2014-07-06T08:55:25Z</time>
      </trkpt>
      <trkpt lat="59.9555997" lon="17.7165542">
        <ele>51.0872</ele>
        <time>2014-07-06T08:55:26Z</time>
      </trkpt>
      <trkpt lat="59.9556021" lon="17.7165052">
        <ele>50.6066</ele>
        <time>2014-07-06T08:55:27Z</time>
      </trkpt>
      <trkpt lat="59.9556043" lon="17.7164544">
        <ele>50.126</ele>
        <time>2014-07-06T08:55:28Z</time>
      </trkpt>
      <trkpt lat="59.9556021" lon="17.7164026">
        <ele>49.1646</ele>
        <time>2014-07-06T08:55:29Z</time>
      </trkpt>
      <trkpt lat="59.9555961" lon="17.7163499">
        <ele>48.684</ele>
        <time>2014-07-06T08:55:30Z</time>
      </trkpt>
      <trkpt lat="59.9555903" lon="17.7162992">
        <ele>48.2034</ele>
        <time>2014-07-06T08:55:31Z</time>
      </trkpt>
      <trkpt lat="59.9555832" lon="17.7162469">
        <ele>47.7225</ele>
        <time>2014-07-06T08:55:32Z</time>
      </trkpt>
      <trkpt lat="59.9555697" lon="17.7162001">
        <ele>47.7225</ele>
        <time>2014-07-06T08:55:33Z</time>
      </trkpt>
      <trkpt lat="59.9555532" lon="17.7161475">
        <ele>48.684</ele>
        <time>2014-07-06T08:55:34Z</time>
      </trkpt>
      <trkpt lat="59.9555382" lon="17.7160957">
        <ele>49.1646</ele>
        <time>2014-07-06T08:55:35Z</time>
      </trkpt>
      <trkpt lat="59.9555289" lon="17.7160465">
        <ele>49.6453</ele>
        <time>2014-07-06T08:55:36Z</time>
      </trkpt>
      <trkpt lat="59.9555241" lon="17.7159944">
        <ele>50.126</ele>
        <time>2014-07-06T08:55:37Z</time>
      </trkpt>
      <trkpt lat="59.9555097" lon="17.7159385">
        <ele>51.0872</ele>
        <time>2014-07-06T08:55:38Z</time>
      </trkpt>
      <trkpt lat="59.9554983" lon="17.7158838">
        <ele>51.0872</ele>
        <time>2014-07-06T08:55:39Z</time>
      </trkpt>
      <trkpt lat="59.9554907" lon="17.715833">
        <ele>52.0486</ele>
        <time>2014-07-06T08:55:40Z</time>
      </trkpt>
      <trkpt lat="59.9554827" lon="17.7157791">
        <ele>51.5679</ele>
        <time>2014-07-06T08:55:41Z</time>
      </trkpt>
      <trkpt lat="59.9554804" lon="17.7157284">
        <ele>51.5679</ele>
        <time>2014-07-06T08:55:42Z</time>
      </trkpt>
      <trkpt lat="59.9554744" lon="17.7156793">
        <ele>51.5679</ele>
        <time>2014-07-06T08:55:43Z</time>
      </trkpt>
      <trkpt lat="59.955465" lon="17.7156236">
        <ele>51.0872</ele>
        <time>2014-07-06T08:55:44Z</time>
      </trkpt>
      <trkpt lat="59.9554577" lon="17.7155678">
        <ele>50.6066</ele>
        <time>2014-07-06T08:55:45Z</time>
      </trkpt>
      <trkpt lat="59.9554526" lon="17.715516">
        <ele>51.0872</ele>
        <time>2014-07-06T08:55:46Z</time>
      </trkpt>
      <trkpt lat="59.9554516" lon="17.7154673">
        <ele>51.5679</ele>
        <time>2014-07-06T08:55:47Z</time>
      </trkpt>
      <trkpt lat="59.9554495" lon="17.7154186">
        <ele>51.0872</ele>
        <time>2014-07-06T08:55:48Z</time>
      </trkpt>
      <trkpt lat="59.9554432" lon="17.7153757">
        <ele>50.6066</ele>
        <time>2014-07-06T08:55:49Z</time>
      </trkpt>
      <trkpt lat="59.9554391" lon="17.7153249">
        <ele>50.126</ele>
        <time>2014-07-06T08:55:50Z</time>
      </trkpt>
      <trkpt lat="59.955441" lon="17.7152684">
        <ele>50.126</ele>
        <time>2014-07-06T08:55:51Z</time>
      </trkpt>
      <trkpt lat="59.9554384" lon="17.7152181">
        <ele>49.6453</ele>
        <time>2014-07-06T08:55:52Z</time>
      </trkpt>
      <trkpt lat="59.9554267" lon="17.7151709">
        <ele>49.6453</ele>
        <time>2014-07-06T08:55:53Z</time>
      </trkpt>
      <trkpt lat="59.9554127" lon="17.7151219">
        <ele>49.6453</ele>
        <time>2014-07-06T08:55:54Z</time>
      </trkpt>
      <trkpt lat="59.9554001" lon="17.7150741">
        <ele>50.126</ele>
        <time>2014-07-06T08:55:55Z</time>
      </trkpt>
      <trkpt lat="59.95539" lon="17.7150318">
        <ele>50.126</ele>
        <time>2014-07-06T08:55:56Z</time>
      </trkpt>
      <trkpt lat="59.9553872" lon="17.7149859">
        <ele>50.6066</ele>
        <time>2014-07-06T08:55:57Z</time>
      </trkpt>
      <trkpt lat="59.9553825" lon="17.7149401">
        <ele>50.6066</ele>
        <time>2014-07-06T08:55:58Z</time>
      </trkpt>
      <trkpt lat="59.9553708" lon="17.7148929">
        <ele>51.0872</ele>
        <time>2014-07-06T08:55:59Z</time>
      </trkpt>
      <trkpt lat="59.955354" lon="17.7148507">
        <ele>51.5679</ele>
        <time>2014-07-06T08:56:00Z</time>
      </trkpt>
      <trkpt lat="59.9553317" lon="17.7148037">
        <ele>51.0872</ele>
        <time>2014-07-06T08:56:01Z</time>
      </trkpt>
      <trkpt lat="59.9553157" lon="17.7147574">
        <ele>50.126</ele>
        <time>2014-07-06T08:56:02Z</time>
      </trkpt>
      <trkpt lat="59.9553066" lon="17.7147176">
        <ele>50.126</ele>
        <time>2014-07-06T08:56:03Z</time>
      </trkpt>
      <trkpt lat="59.9552966" lon="17.7146778">
        <ele>50.126</ele>
        <time>2014-07-06T08:56:04Z</time>
      </trkpt>
      <trkpt lat="59.9552843" lon="17.7146282">
        <ele>50.126</ele>
        <time>2014-07-06T08:56:05Z</time>
      </trkpt>
      <trkpt lat="59.9552645" lon="17.714579">
        <ele>50.126</ele>
        <time>2014-07-06T08:56:06Z</time>
      </trkpt>
      <trkpt lat="59.9552493" lon="17.7145316">
        <ele>49.6453</ele>
        <time>2014-07-06T08:56:07Z</time>
      </trkpt>
      <trkpt lat="59.9552405" lon="17.7144795">
        <ele>49.1646</ele>
        <time>2014-07-06T08:56:08Z</time>
      </trkpt>
      <trkpt lat="59.9552297" lon="17.7144339">
        <ele>49.1646</ele>
        <time>2014-07-06T08:56:09Z</time>
      </trkpt>
      <trkpt lat="59.9552224" lon="17.7143974">
        <ele>49.1646</ele>
        <time>2014-07-06T08:56:10Z</time>
      </trkpt>
      <trkpt lat="59.9552168" lon="17.7143634">
        <ele>49.1646</ele>
        <time>2014-07-06T08:56:11Z</time>
      </trkpt>
      <trkpt lat="59.9552118" lon="17.7143287">
        <ele>48.684</ele>
        <time>2014-07-06T08:56:12Z</time>
      </trkpt>
      <trkpt lat="59.9551998" lon="17.7142986">
        <ele>48.684</ele>
        <time>2014-07-06T08:56:13Z</time>
      </trkpt>
      <trkpt lat="59.9551766" lon="17.7142723">
        <ele>48.684</ele>
        <time>2014-07-06T08:56:14Z</time>
      </trkpt>
      <trkpt lat="59.9551528" lon="17.7142475">
        <ele>48.2034</ele>
        <time>2014-07-06T08:56:15Z</time>
      </trkpt>
      <trkpt lat="59.9551314" lon="17.7142376">
        <ele>48.2034</ele>
        <time>2014-07-06T08:56:16Z</time>
      </trkpt>
      <trkpt lat="59.9551123" lon="17.71425">
        <ele>48.2034</ele>
        <time>2014-07-06T08:56:17Z</time>
      </trkpt>
      <trkpt lat="59.9550998" lon="17.7142744">
        <ele>48.2034</ele>
        <time>2014-07-06T08:56:18Z</time>
      </trkpt>
      <trkpt lat="59.9550894" lon="17.7143022">
        <ele>48.2034</ele>
        <time>2014-07-06T08:56:19Z</time>
      </trkpt>
      <trkpt lat="59.9550755" lon="17.7143404">
        <ele>48.2034</ele>
        <time>2014-07-06T08:56:20Z</time>
      </trkpt>
      <trkpt lat="59.9550601" lon="17.7143772">
        <ele>48.2034</ele>
        <time>2014-07-06T08:56:21Z</time>
      </trkpt>
      <trkpt lat="59.9550407" lon="17.7143955">
        <ele>48.2034</ele>
        <time>2014-07-06T08:56:22Z</time>
      </trkpt>
      <trkpt lat="59.9550223" lon="17.7144059">
        <ele>48.2034</ele>
        <time>2014-07-06T08:56:23Z</time>
      </trkpt>
      <trkpt lat="59.9550049" lon="17.7144246">
        <ele>48.2034</ele>
        <time>2014-07-06T08:56:24Z</time>
      </trkpt>
      <trkpt lat="59.9549881" lon="17.7144556">
        <ele>48.2034</ele>
        <time>2014-07-06T08:56:25Z</time>
      </trkpt>
      <trkpt lat="59.9549749" lon="17.7144822">
        <ele>48.684</ele>
        <time>2014-07-06T08:56:26Z</time>
      </trkpt>
      <trkpt lat="59.9549588" lon="17.7145104">
        <ele>48.684</ele>
        <time>2014-07-06T08:56:27Z</time>
      </trkpt>
      <trkpt lat="59.9549378" lon="17.7145396">
        <ele>48.684</ele>
        <time>2014-07-06T08:56:28Z</time>
      </trkpt>
      <trkpt lat="59.9549176" lon="17.7145691">
        <ele>48.684</ele>
        <time>2014-07-06T08:56:29Z</time>
      </trkpt>
      <trkpt lat="59.9553139" lon="17.7142795">
        <ele>42.916</ele>
        <time>2014-07-06T08:57:22Z</time>
      </trkpt>
    </trkseg>
  </trk>
</gpx>